<?xml version="1.0" encoding="UTF-8" standalone="no" ?>
<gpx xmlns="http://www.topografix.com/GPX/1/1" xmlns:xsi="http://www.w3.org/2001/XMLSchema-instance" xsi:schemaLocation="http://www.topografix.com/GPX/1/1 http://www.topografix.com/GPX/1/1/gpx.xsd" version="1.1" creator="VisuGPX - https://www.visugpx.com">
  <metadata>
    <name>2023-03-07 Monte Gorfi</name>
  </metadata>
  <trk>
    <name><![CDATA[2023-03-07 12:43:18]]></name>
    <trkseg>
      <trkpt lat="44.34885" lon="7.20417">
        <ele>1343.58</ele>
        <time>2023-03-07T07:04:50Z</time>
      </trkpt>
      <trkpt lat="44.34886" lon="7.2042">
        <ele>1344.54</ele>
        <time>2023-03-07T07:05:03Z</time>
      </trkpt>
      <trkpt lat="44.34893" lon="7.20423">
        <ele>1343.58</ele>
        <time>2023-03-07T07:05:18Z</time>
      </trkpt>
      <trkpt lat="44.34894" lon="7.20422">
        <ele>1343.58</ele>
        <time>2023-03-07T07:05:19Z</time>
      </trkpt>
      <trkpt lat="44.34903" lon="7.20424">
        <ele>1339.25</ele>
        <time>2023-03-07T07:05:34Z</time>
      </trkpt>
      <trkpt lat="44.34911" lon="7.20425">
        <ele>1336.37</ele>
        <time>2023-03-07T07:05:48Z</time>
      </trkpt>
      <trkpt lat="44.34926" lon="7.20432">
        <ele>1335.89</ele>
        <time>2023-03-07T07:06:07Z</time>
      </trkpt>
      <trkpt lat="44.34937" lon="7.20436">
        <ele>1334.45</ele>
        <time>2023-03-07T07:06:22Z</time>
      </trkpt>
      <trkpt lat="44.34949" lon="7.20445">
        <ele>1336.37</ele>
        <time>2023-03-07T07:06:38Z</time>
      </trkpt>
      <trkpt lat="44.34961" lon="7.20456">
        <ele>1338.77</ele>
        <time>2023-03-07T07:06:54Z</time>
      </trkpt>
      <trkpt lat="44.34967" lon="7.20464">
        <ele>1340.22</ele>
        <time>2023-03-07T07:07:04Z</time>
      </trkpt>
      <trkpt lat="44.34977" lon="7.20478">
        <ele>1342.14</ele>
        <time>2023-03-07T07:07:21Z</time>
      </trkpt>
      <trkpt lat="44.34984" lon="7.20488">
        <ele>1344.06</ele>
        <time>2023-03-07T07:07:36Z</time>
      </trkpt>
      <trkpt lat="44.34993" lon="7.20501">
        <ele>1345.5</ele>
        <time>2023-03-07T07:07:55Z</time>
      </trkpt>
      <trkpt lat="44.35" lon="7.20512">
        <ele>1346.46</ele>
        <time>2023-03-07T07:08:10Z</time>
      </trkpt>
      <trkpt lat="44.3501" lon="7.20522">
        <ele>1347.91</ele>
        <time>2023-03-07T07:08:26Z</time>
      </trkpt>
      <trkpt lat="44.35018" lon="7.20527">
        <ele>1348.39</ele>
        <time>2023-03-07T07:08:36Z</time>
      </trkpt>
      <trkpt lat="44.35031" lon="7.20531">
        <ele>1347.91</ele>
        <time>2023-03-07T07:08:52Z</time>
      </trkpt>
      <trkpt lat="44.35044" lon="7.2054">
        <ele>1348.39</ele>
        <time>2023-03-07T07:09:09Z</time>
      </trkpt>
      <trkpt lat="44.35047" lon="7.20542">
        <ele>1348.87</ele>
        <time>2023-03-07T07:09:13Z</time>
      </trkpt>
      <trkpt lat="44.35056" lon="7.20555">
        <ele>1351.27</ele>
        <time>2023-03-07T07:09:29Z</time>
      </trkpt>
      <trkpt lat="44.3506" lon="7.20567">
        <ele>1354.63</ele>
        <time>2023-03-07T07:09:42Z</time>
      </trkpt>
      <trkpt lat="44.35065" lon="7.20579">
        <ele>1357.52</ele>
        <time>2023-03-07T07:09:56Z</time>
      </trkpt>
      <trkpt lat="44.35074" lon="7.20595">
        <ele>1359.92</ele>
        <time>2023-03-07T07:10:14Z</time>
      </trkpt>
      <trkpt lat="44.35088" lon="7.206">
        <ele>1360.4</ele>
        <time>2023-03-07T07:10:31Z</time>
      </trkpt>
      <trkpt lat="44.351" lon="7.20602">
        <ele>1360.4</ele>
        <time>2023-03-07T07:10:48Z</time>
      </trkpt>
      <trkpt lat="44.3511" lon="7.20607">
        <ele>1361.84</ele>
        <time>2023-03-07T07:11:03Z</time>
      </trkpt>
      <trkpt lat="44.35113" lon="7.20608">
        <ele>1362.81</ele>
        <time>2023-03-07T07:11:07Z</time>
      </trkpt>
      <trkpt lat="44.35125" lon="7.20613">
        <ele>1363.29</ele>
        <time>2023-03-07T07:11:22Z</time>
      </trkpt>
      <trkpt lat="44.35132" lon="7.20626">
        <ele>1363.77</ele>
        <time>2023-03-07T07:11:36Z</time>
      </trkpt>
      <trkpt lat="44.35138" lon="7.20638">
        <ele>1365.21</ele>
        <time>2023-03-07T07:11:50Z</time>
      </trkpt>
      <trkpt lat="44.35142" lon="7.20649">
        <ele>1367.61</ele>
        <time>2023-03-07T07:12:03Z</time>
      </trkpt>
      <trkpt lat="44.35145" lon="7.20661">
        <ele>1369.54</ele>
        <time>2023-03-07T07:12:18Z</time>
      </trkpt>
      <trkpt lat="44.35146" lon="7.20675">
        <ele>1370.5</ele>
        <time>2023-03-07T07:12:31Z</time>
      </trkpt>
      <trkpt lat="44.3515" lon="7.20693">
        <ele>1370.98</ele>
        <time>2023-03-07T07:12:46Z</time>
      </trkpt>
      <trkpt lat="44.35157" lon="7.20706">
        <ele>1371.46</ele>
        <time>2023-03-07T07:13:02Z</time>
      </trkpt>
      <trkpt lat="44.35165" lon="7.20714">
        <ele>1372.9</ele>
        <time>2023-03-07T07:13:17Z</time>
      </trkpt>
      <trkpt lat="44.35166" lon="7.20715">
        <ele>1373.38</ele>
        <time>2023-03-07T07:13:19Z</time>
      </trkpt>
      <trkpt lat="44.35174" lon="7.20724">
        <ele>1373.86</ele>
        <time>2023-03-07T07:13:35Z</time>
      </trkpt>
      <trkpt lat="44.35184" lon="7.2073">
        <ele>1375.78</ele>
        <time>2023-03-07T07:13:50Z</time>
      </trkpt>
      <trkpt lat="44.35194" lon="7.2073">
        <ele>1377.23</ele>
        <time>2023-03-07T07:14:05Z</time>
      </trkpt>
      <trkpt lat="44.35205" lon="7.20731">
        <ele>1378.19</ele>
        <time>2023-03-07T07:14:21Z</time>
      </trkpt>
      <trkpt lat="44.35218" lon="7.20733">
        <ele>1379.15</ele>
        <time>2023-03-07T07:14:37Z</time>
      </trkpt>
      <trkpt lat="44.35229" lon="7.20738">
        <ele>1379.63</ele>
        <time>2023-03-07T07:14:54Z</time>
      </trkpt>
      <trkpt lat="44.35238" lon="7.20746">
        <ele>1380.59</ele>
        <time>2023-03-07T07:15:09Z</time>
      </trkpt>
      <trkpt lat="44.35249" lon="7.20752">
        <ele>1382.03</ele>
        <time>2023-03-07T07:15:25Z</time>
      </trkpt>
      <trkpt lat="44.35259" lon="7.20762">
        <ele>1384.92</ele>
        <time>2023-03-07T07:15:42Z</time>
      </trkpt>
      <trkpt lat="44.35266" lon="7.20771">
        <ele>1387.32</ele>
        <time>2023-03-07T07:15:56Z</time>
      </trkpt>
      <trkpt lat="44.35276" lon="7.20781">
        <ele>1387.32</ele>
        <time>2023-03-07T07:16:11Z</time>
      </trkpt>
      <trkpt lat="44.35282" lon="7.20792">
        <ele>1386.84</ele>
        <time>2023-03-07T07:16:24Z</time>
      </trkpt>
      <trkpt lat="44.35289" lon="7.20803">
        <ele>1388.28</ele>
        <time>2023-03-07T07:16:39Z</time>
      </trkpt>
      <trkpt lat="44.35295" lon="7.20818">
        <ele>1390.68</ele>
        <time>2023-03-07T07:16:53Z</time>
      </trkpt>
      <trkpt lat="44.35301" lon="7.2083">
        <ele>1392.61</ele>
        <time>2023-03-07T07:17:07Z</time>
      </trkpt>
      <trkpt lat="44.35308" lon="7.20838">
        <ele>1393.57</ele>
        <time>2023-03-07T07:17:21Z</time>
      </trkpt>
      <trkpt lat="44.35315" lon="7.20851">
        <ele>1395.01</ele>
        <time>2023-03-07T07:17:37Z</time>
      </trkpt>
      <trkpt lat="44.35323" lon="7.20862">
        <ele>1395.01</ele>
        <time>2023-03-07T07:17:52Z</time>
      </trkpt>
      <trkpt lat="44.35329" lon="7.20872">
        <ele>1397.89</ele>
        <time>2023-03-07T07:18:07Z</time>
      </trkpt>
      <trkpt lat="44.35338" lon="7.20883">
        <ele>1400.78</ele>
        <time>2023-03-07T07:18:26Z</time>
      </trkpt>
      <trkpt lat="44.35347" lon="7.20893">
        <ele>1402.7</ele>
        <time>2023-03-07T07:18:42Z</time>
      </trkpt>
      <trkpt lat="44.35356" lon="7.20904">
        <ele>1404.14</ele>
        <time>2023-03-07T07:18:59Z</time>
      </trkpt>
      <trkpt lat="44.35364" lon="7.20916">
        <ele>1406.55</ele>
        <time>2023-03-07T07:19:14Z</time>
      </trkpt>
      <trkpt lat="44.35372" lon="7.20928">
        <ele>1407.03</ele>
        <time>2023-03-07T07:19:31Z</time>
      </trkpt>
      <trkpt lat="44.35379" lon="7.20941">
        <ele>1407.99</ele>
        <time>2023-03-07T07:19:45Z</time>
      </trkpt>
      <trkpt lat="44.35384" lon="7.20953">
        <ele>1407.99</ele>
        <time>2023-03-07T07:19:58Z</time>
      </trkpt>
      <trkpt lat="44.3539" lon="7.20965">
        <ele>1408.47</ele>
        <time>2023-03-07T07:20:11Z</time>
      </trkpt>
      <trkpt lat="44.35397" lon="7.20976">
        <ele>1410.87</ele>
        <time>2023-03-07T07:20:25Z</time>
      </trkpt>
      <trkpt lat="44.35408" lon="7.20986">
        <ele>1412.31</ele>
        <time>2023-03-07T07:20:41Z</time>
      </trkpt>
      <trkpt lat="44.35417" lon="7.20995">
        <ele>1413.76</ele>
        <time>2023-03-07T07:20:56Z</time>
      </trkpt>
      <trkpt lat="44.35427" lon="7.21001">
        <ele>1415.2</ele>
        <time>2023-03-07T07:21:11Z</time>
      </trkpt>
      <trkpt lat="44.35439" lon="7.21005">
        <ele>1417.12</ele>
        <time>2023-03-07T07:21:28Z</time>
      </trkpt>
      <trkpt lat="44.3545" lon="7.21007">
        <ele>1419.04</ele>
        <time>2023-03-07T07:21:44Z</time>
      </trkpt>
      <trkpt lat="44.3546" lon="7.21011">
        <ele>1420.97</ele>
        <time>2023-03-07T07:22:01Z</time>
      </trkpt>
      <trkpt lat="44.35469" lon="7.21013">
        <ele>1421.93</ele>
        <time>2023-03-07T07:22:18Z</time>
      </trkpt>
      <trkpt lat="44.35481" lon="7.21015">
        <ele>1423.85</ele>
        <time>2023-03-07T07:22:35Z</time>
      </trkpt>
      <trkpt lat="44.35492" lon="7.21021">
        <ele>1423.85</ele>
        <time>2023-03-07T07:22:53Z</time>
      </trkpt>
      <trkpt lat="44.355" lon="7.21028">
        <ele>1427.21</ele>
        <time>2023-03-07T07:23:10Z</time>
      </trkpt>
      <trkpt lat="44.35508" lon="7.21031">
        <ele>1429.14</ele>
        <time>2023-03-07T07:23:24Z</time>
      </trkpt>
      <trkpt lat="44.35518" lon="7.2104">
        <ele>1433.46</ele>
        <time>2023-03-07T07:23:40Z</time>
      </trkpt>
      <trkpt lat="44.35526" lon="7.21046">
        <ele>1434.91</ele>
        <time>2023-03-07T07:23:55Z</time>
      </trkpt>
      <trkpt lat="44.35534" lon="7.21054">
        <ele>1437.31</ele>
        <time>2023-03-07T07:24:10Z</time>
      </trkpt>
      <trkpt lat="44.35544" lon="7.21062">
        <ele>1439.23</ele>
        <time>2023-03-07T07:24:26Z</time>
      </trkpt>
      <trkpt lat="44.35553" lon="7.21072">
        <ele>1440.67</ele>
        <time>2023-03-07T07:24:43Z</time>
      </trkpt>
      <trkpt lat="44.3556" lon="7.21082">
        <ele>1441.15</ele>
        <time>2023-03-07T07:24:56Z</time>
      </trkpt>
      <trkpt lat="44.35568" lon="7.21092">
        <ele>1442.6</ele>
        <time>2023-03-07T07:25:11Z</time>
      </trkpt>
      <trkpt lat="44.35578" lon="7.21097">
        <ele>1444.52</ele>
        <time>2023-03-07T07:25:26Z</time>
      </trkpt>
      <trkpt lat="44.35586" lon="7.21109">
        <ele>1445.96</ele>
        <time>2023-03-07T07:25:42Z</time>
      </trkpt>
      <trkpt lat="44.35596" lon="7.21119">
        <ele>1446.92</ele>
        <time>2023-03-07T07:25:58Z</time>
      </trkpt>
      <trkpt lat="44.35604" lon="7.2113">
        <ele>1447.88</ele>
        <time>2023-03-07T07:26:14Z</time>
      </trkpt>
      <trkpt lat="44.35611" lon="7.21139">
        <ele>1448.36</ele>
        <time>2023-03-07T07:26:29Z</time>
      </trkpt>
      <trkpt lat="44.35618" lon="7.21148">
        <ele>1449.81</ele>
        <time>2023-03-07T07:26:43Z</time>
      </trkpt>
      <trkpt lat="44.35624" lon="7.21157">
        <ele>1450.77</ele>
        <time>2023-03-07T07:26:57Z</time>
      </trkpt>
      <trkpt lat="44.3563" lon="7.21165">
        <ele>1451.73</ele>
        <time>2023-03-07T07:27:09Z</time>
      </trkpt>
      <trkpt lat="44.35637" lon="7.21175">
        <ele>1452.69</ele>
        <time>2023-03-07T07:27:24Z</time>
      </trkpt>
      <trkpt lat="44.35644" lon="7.21184">
        <ele>1454.61</ele>
        <time>2023-03-07T07:27:39Z</time>
      </trkpt>
      <trkpt lat="44.35648" lon="7.21189">
        <ele>1455.09</ele>
        <time>2023-03-07T07:27:47Z</time>
      </trkpt>
      <trkpt lat="44.35659" lon="7.21198">
        <ele>1456.05</ele>
        <time>2023-03-07T07:28:04Z</time>
      </trkpt>
      <trkpt lat="44.3567" lon="7.21191">
        <ele>1456.53</ele>
        <time>2023-03-07T07:28:21Z</time>
      </trkpt>
      <trkpt lat="44.35659" lon="7.21179">
        <ele>1498.35</ele>
        <time>2023-03-07T07:28:41Z</time>
      </trkpt>
      <trkpt lat="44.35674" lon="7.2118">
        <ele>1506.52</ele>
        <time>2023-03-07T07:29:00Z</time>
      </trkpt>
      <trkpt lat="44.3569" lon="7.2117">
        <ele>1512.77</ele>
        <time>2023-03-07T07:29:21Z</time>
      </trkpt>
      <trkpt lat="44.3571" lon="7.21173">
        <ele>1522.39</ele>
        <time>2023-03-07T07:29:38Z</time>
      </trkpt>
      <trkpt lat="44.35727" lon="7.2118">
        <ele>1534.4</ele>
        <time>2023-03-07T07:29:55Z</time>
      </trkpt>
      <trkpt lat="44.35728" lon="7.21188">
        <ele>1536.32</ele>
        <time>2023-03-07T07:30:11Z</time>
      </trkpt>
      <trkpt lat="44.35683" lon="7.21184">
        <ele>1535.84</ele>
        <time>2023-03-07T07:30:28Z</time>
      </trkpt>
      <trkpt lat="44.35668" lon="7.21189">
        <ele>1536.32</ele>
        <time>2023-03-07T07:30:43Z</time>
      </trkpt>
      <trkpt lat="44.35663" lon="7.21194">
        <ele>1536.8</ele>
        <time>2023-03-07T07:30:55Z</time>
      </trkpt>
      <trkpt lat="44.35656" lon="7.212">
        <ele>1537.29</ele>
        <time>2023-03-07T07:31:07Z</time>
      </trkpt>
      <trkpt lat="44.35651" lon="7.21209">
        <ele>1538.25</ele>
        <time>2023-03-07T07:31:20Z</time>
      </trkpt>
      <trkpt lat="44.35655" lon="7.21215">
        <ele>1541.13</ele>
        <time>2023-03-07T07:31:35Z</time>
      </trkpt>
      <trkpt lat="44.35653" lon="7.21206">
        <ele>1548.34</ele>
        <time>2023-03-07T07:31:51Z</time>
      </trkpt>
      <trkpt lat="44.35654" lon="7.21197">
        <ele>1558.43</ele>
        <time>2023-03-07T07:32:10Z</time>
      </trkpt>
      <trkpt lat="44.3566" lon="7.21192">
        <ele>1567.09</ele>
        <time>2023-03-07T07:32:32Z</time>
      </trkpt>
      <trkpt lat="44.35692" lon="7.21168">
        <ele>1561.8</ele>
        <time>2023-03-07T07:32:53Z</time>
      </trkpt>
      <trkpt lat="44.3573" lon="7.21142">
        <ele>1548.34</ele>
        <time>2023-03-07T07:33:12Z</time>
      </trkpt>
      <trkpt lat="44.35749" lon="7.21135">
        <ele>1545.46</ele>
        <time>2023-03-07T07:33:32Z</time>
      </trkpt>
      <trkpt lat="44.35763" lon="7.21133">
        <ele>1542.09</ele>
        <time>2023-03-07T07:33:50Z</time>
      </trkpt>
      <trkpt lat="44.35777" lon="7.21134">
        <ele>1538.73</ele>
        <time>2023-03-07T07:34:07Z</time>
      </trkpt>
      <trkpt lat="44.35792" lon="7.21145">
        <ele>1535.36</ele>
        <time>2023-03-07T07:34:25Z</time>
      </trkpt>
      <trkpt lat="44.35804" lon="7.21159">
        <ele>1534.4</ele>
        <time>2023-03-07T07:34:43Z</time>
      </trkpt>
      <trkpt lat="44.35805" lon="7.2116">
        <ele>1534.4</ele>
        <time>2023-03-07T07:34:44Z</time>
      </trkpt>
      <trkpt lat="44.35806" lon="7.21163">
        <ele>1534.4</ele>
        <time>2023-03-07T07:34:46Z</time>
      </trkpt>
      <trkpt lat="44.35816" lon="7.21177">
        <ele>1534.4</ele>
        <time>2023-03-07T07:35:04Z</time>
      </trkpt>
      <trkpt lat="44.35816" lon="7.21182">
        <ele>1534.4</ele>
        <time>2023-03-07T07:35:22Z</time>
      </trkpt>
      <trkpt lat="44.35834" lon="7.21188">
        <ele>1534.88</ele>
        <time>2023-03-07T07:35:43Z</time>
      </trkpt>
      <trkpt lat="44.35867" lon="7.21154">
        <ele>1535.36</ele>
        <time>2023-03-07T07:36:02Z</time>
      </trkpt>
      <trkpt lat="44.35873" lon="7.21143">
        <ele>1535.36</ele>
        <time>2023-03-07T07:36:19Z</time>
      </trkpt>
      <trkpt lat="44.35884" lon="7.21136">
        <ele>1534.88</ele>
        <time>2023-03-07T07:36:38Z</time>
      </trkpt>
      <trkpt lat="44.35892" lon="7.21132">
        <ele>1533.44</ele>
        <time>2023-03-07T07:36:52Z</time>
      </trkpt>
      <trkpt lat="44.35914" lon="7.21131">
        <ele>1532</ele>
        <time>2023-03-07T07:37:11Z</time>
      </trkpt>
      <trkpt lat="44.3594" lon="7.21154">
        <ele>1546.9</ele>
        <time>2023-03-07T07:37:34Z</time>
      </trkpt>
      <trkpt lat="44.3595" lon="7.21157">
        <ele>1550.74</ele>
        <time>2023-03-07T07:37:53Z</time>
      </trkpt>
      <trkpt lat="44.35958" lon="7.21168">
        <ele>1562.76</ele>
        <time>2023-03-07T07:38:12Z</time>
      </trkpt>
      <trkpt lat="44.35972" lon="7.21178">
        <ele>1562.76</ele>
        <time>2023-03-07T07:38:34Z</time>
      </trkpt>
      <trkpt lat="44.35983" lon="7.21178">
        <ele>1563.72</ele>
        <time>2023-03-07T07:38:51Z</time>
      </trkpt>
      <trkpt lat="44.35979" lon="7.21177">
        <ele>1560.84</ele>
        <time>2023-03-07T07:39:07Z</time>
      </trkpt>
      <trkpt lat="44.3598" lon="7.21174">
        <ele>1558.43</ele>
        <time>2023-03-07T07:39:24Z</time>
      </trkpt>
      <trkpt lat="44.35987" lon="7.21173">
        <ele>1558.92</ele>
        <time>2023-03-07T07:39:44Z</time>
      </trkpt>
      <trkpt lat="44.35996" lon="7.21168">
        <ele>1562.76</ele>
        <time>2023-03-07T07:40:00Z</time>
      </trkpt>
      <trkpt lat="44.36009" lon="7.21165">
        <ele>1563.24</ele>
        <time>2023-03-07T07:40:18Z</time>
      </trkpt>
      <trkpt lat="44.36032" lon="7.21159">
        <ele>1559.88</ele>
        <time>2023-03-07T07:40:37Z</time>
      </trkpt>
      <trkpt lat="44.36057" lon="7.21152">
        <ele>1553.63</ele>
        <time>2023-03-07T07:40:54Z</time>
      </trkpt>
      <trkpt lat="44.36063" lon="7.21143">
        <ele>1549.3</ele>
        <time>2023-03-07T07:41:14Z</time>
      </trkpt>
      <trkpt lat="44.36063" lon="7.21132">
        <ele>1549.78</ele>
        <time>2023-03-07T07:41:38Z</time>
      </trkpt>
      <trkpt lat="44.3606" lon="7.21129">
        <ele>1552.19</ele>
        <time>2023-03-07T07:41:53Z</time>
      </trkpt>
      <trkpt lat="44.3606" lon="7.21122">
        <ele>1553.15</ele>
        <time>2023-03-07T07:42:14Z</time>
      </trkpt>
      <trkpt lat="44.36062" lon="7.21127">
        <ele>1556.51</ele>
        <time>2023-03-07T07:42:36Z</time>
      </trkpt>
      <trkpt lat="44.36077" lon="7.21134">
        <ele>1559.4</ele>
        <time>2023-03-07T07:42:53Z</time>
      </trkpt>
      <trkpt lat="44.36091" lon="7.21146">
        <ele>1563.24</ele>
        <time>2023-03-07T07:43:14Z</time>
      </trkpt>
      <trkpt lat="44.36099" lon="7.21151">
        <ele>1564.2</ele>
        <time>2023-03-07T07:43:31Z</time>
      </trkpt>
      <trkpt lat="44.36102" lon="7.21149">
        <ele>1565.16</ele>
        <time>2023-03-07T07:43:48Z</time>
      </trkpt>
      <trkpt lat="44.36104" lon="7.21154">
        <ele>1565.64</ele>
        <time>2023-03-07T07:44:13Z</time>
      </trkpt>
      <trkpt lat="44.36099" lon="7.21163">
        <ele>1566.61</ele>
        <time>2023-03-07T07:44:37Z</time>
      </trkpt>
      <trkpt lat="44.36102" lon="7.21159">
        <ele>1568.53</ele>
        <time>2023-03-07T07:44:54Z</time>
      </trkpt>
      <trkpt lat="44.36106" lon="7.21154">
        <ele>1569.01</ele>
        <time>2023-03-07T07:45:10Z</time>
      </trkpt>
      <trkpt lat="44.36118" lon="7.21145">
        <ele>1568.53</ele>
        <time>2023-03-07T07:45:24Z</time>
      </trkpt>
      <trkpt lat="44.36123" lon="7.21147">
        <ele>1568.53</ele>
        <time>2023-03-07T07:45:36Z</time>
      </trkpt>
      <trkpt lat="44.36128" lon="7.21145">
        <ele>1569.01</ele>
        <time>2023-03-07T07:45:53Z</time>
      </trkpt>
      <trkpt lat="44.36129" lon="7.21125">
        <ele>1546.9</ele>
        <time>2023-03-07T07:46:05Z</time>
      </trkpt>
      <trkpt lat="44.36131" lon="7.21118">
        <ele>1543.53</ele>
        <time>2023-03-07T07:46:18Z</time>
      </trkpt>
      <trkpt lat="44.36122" lon="7.21114">
        <ele>1543.05</ele>
        <time>2023-03-07T07:46:30Z</time>
      </trkpt>
      <trkpt lat="44.36116" lon="7.21116">
        <ele>1538.73</ele>
        <time>2023-03-07T07:46:52Z</time>
      </trkpt>
      <trkpt lat="44.36118" lon="7.21112">
        <ele>1541.13</ele>
        <time>2023-03-07T07:47:11Z</time>
      </trkpt>
      <trkpt lat="44.36125" lon="7.21107">
        <ele>1540.17</ele>
        <time>2023-03-07T07:47:23Z</time>
      </trkpt>
      <trkpt lat="44.36117" lon="7.21105">
        <ele>1540.17</ele>
        <time>2023-03-07T07:47:37Z</time>
      </trkpt>
      <trkpt lat="44.36119" lon="7.21099">
        <ele>1542.09</ele>
        <time>2023-03-07T07:47:53Z</time>
      </trkpt>
      <trkpt lat="44.3612" lon="7.21093">
        <ele>1544.5</ele>
        <time>2023-03-07T07:48:05Z</time>
      </trkpt>
      <trkpt lat="44.36122" lon="7.21089">
        <ele>1547.38</ele>
        <time>2023-03-07T07:48:20Z</time>
      </trkpt>
      <trkpt lat="44.36113" lon="7.21086">
        <ele>1547.86</ele>
        <time>2023-03-07T07:48:32Z</time>
      </trkpt>
      <trkpt lat="44.36115" lon="7.21079">
        <ele>1549.78</ele>
        <time>2023-03-07T07:48:46Z</time>
      </trkpt>
      <trkpt lat="44.36113" lon="7.21077">
        <ele>1550.26</ele>
        <time>2023-03-07T07:49:00Z</time>
      </trkpt>
      <trkpt lat="44.36117" lon="7.21072">
        <ele>1552.19</ele>
        <time>2023-03-07T07:49:15Z</time>
      </trkpt>
      <trkpt lat="44.36103" lon="7.21065">
        <ele>1555.07</ele>
        <time>2023-03-07T07:49:32Z</time>
      </trkpt>
      <trkpt lat="44.3611" lon="7.21054">
        <ele>1556.03</ele>
        <time>2023-03-07T07:49:50Z</time>
      </trkpt>
      <trkpt lat="44.36113" lon="7.21045">
        <ele>1559.4</ele>
        <time>2023-03-07T07:50:02Z</time>
      </trkpt>
      <trkpt lat="44.36113" lon="7.21036">
        <ele>1562.76</ele>
        <time>2023-03-07T07:50:14Z</time>
      </trkpt>
      <trkpt lat="44.36108" lon="7.21025">
        <ele>1561.32</ele>
        <time>2023-03-07T07:50:29Z</time>
      </trkpt>
      <trkpt lat="44.36111" lon="7.21014">
        <ele>1564.68</ele>
        <time>2023-03-07T07:50:43Z</time>
      </trkpt>
      <trkpt lat="44.36111" lon="7.21006">
        <ele>1569.01</ele>
        <time>2023-03-07T07:50:59Z</time>
      </trkpt>
      <trkpt lat="44.36113" lon="7.20996">
        <ele>1571.41</ele>
        <time>2023-03-07T07:51:13Z</time>
      </trkpt>
      <trkpt lat="44.36113" lon="7.2099">
        <ele>1573.82</ele>
        <time>2023-03-07T07:51:28Z</time>
      </trkpt>
      <trkpt lat="44.36115" lon="7.20979">
        <ele>1580.54</ele>
        <time>2023-03-07T07:51:48Z</time>
      </trkpt>
      <trkpt lat="44.36112" lon="7.20973">
        <ele>1580.06</ele>
        <time>2023-03-07T07:52:05Z</time>
      </trkpt>
      <trkpt lat="44.36116" lon="7.20967">
        <ele>1581.99</ele>
        <time>2023-03-07T07:52:21Z</time>
      </trkpt>
      <trkpt lat="44.36119" lon="7.20959">
        <ele>1584.39</ele>
        <time>2023-03-07T07:52:33Z</time>
      </trkpt>
      <trkpt lat="44.36127" lon="7.20952">
        <ele>1585.83</ele>
        <time>2023-03-07T07:52:48Z</time>
      </trkpt>
      <trkpt lat="44.36129" lon="7.20941">
        <ele>1588.24</ele>
        <time>2023-03-07T07:53:04Z</time>
      </trkpt>
      <trkpt lat="44.36127" lon="7.20935">
        <ele>1589.68</ele>
        <time>2023-03-07T07:53:15Z</time>
      </trkpt>
      <trkpt lat="44.36127" lon="7.20923">
        <ele>1591.12</ele>
        <time>2023-03-07T07:53:29Z</time>
      </trkpt>
      <trkpt lat="44.36123" lon="7.20917">
        <ele>1591.6</ele>
        <time>2023-03-07T07:53:41Z</time>
      </trkpt>
      <trkpt lat="44.36114" lon="7.20911">
        <ele>1594.48</ele>
        <time>2023-03-07T07:53:58Z</time>
      </trkpt>
      <trkpt lat="44.36117" lon="7.20902">
        <ele>1597.37</ele>
        <time>2023-03-07T07:54:13Z</time>
      </trkpt>
      <trkpt lat="44.36122" lon="7.20891">
        <ele>1601.69</ele>
        <time>2023-03-07T07:54:27Z</time>
      </trkpt>
      <trkpt lat="44.36124" lon="7.20884">
        <ele>1604.58</ele>
        <time>2023-03-07T07:54:40Z</time>
      </trkpt>
      <trkpt lat="44.3611" lon="7.20881">
        <ele>1606.02</ele>
        <time>2023-03-07T07:54:54Z</time>
      </trkpt>
      <trkpt lat="44.36109" lon="7.20878">
        <ele>1608.42</ele>
        <time>2023-03-07T07:55:06Z</time>
      </trkpt>
      <trkpt lat="44.36117" lon="7.20865">
        <ele>1608.42</ele>
        <time>2023-03-07T07:55:22Z</time>
      </trkpt>
      <trkpt lat="44.36118" lon="7.20851">
        <ele>1607.46</ele>
        <time>2023-03-07T07:55:38Z</time>
      </trkpt>
      <trkpt lat="44.36117" lon="7.20847">
        <ele>1609.86</ele>
        <time>2023-03-07T07:55:53Z</time>
      </trkpt>
      <trkpt lat="44.36119" lon="7.20839">
        <ele>1613.23</ele>
        <time>2023-03-07T07:56:08Z</time>
      </trkpt>
      <trkpt lat="44.36114" lon="7.20833">
        <ele>1613.71</ele>
        <time>2023-03-07T07:56:21Z</time>
      </trkpt>
      <trkpt lat="44.36116" lon="7.20838">
        <ele>1615.15</ele>
        <time>2023-03-07T07:56:35Z</time>
      </trkpt>
      <trkpt lat="44.36119" lon="7.20839">
        <ele>1613.71</ele>
        <time>2023-03-07T07:56:57Z</time>
      </trkpt>
      <trkpt lat="44.36119" lon="7.20839">
        <ele>1614.19</ele>
        <time>2023-03-07T07:57:31Z</time>
      </trkpt>
      <trkpt lat="44.36118" lon="7.20838">
        <ele>1619</ele>
        <time>2023-03-07T07:57:47Z</time>
      </trkpt>
      <trkpt lat="44.36119" lon="7.20843">
        <ele>1619.96</ele>
        <time>2023-03-07T07:58:04Z</time>
      </trkpt>
      <trkpt lat="44.36114" lon="7.20842">
        <ele>1618.04</ele>
        <time>2023-03-07T07:58:21Z</time>
      </trkpt>
      <trkpt lat="44.36114" lon="7.2084">
        <ele>1618.04</ele>
        <time>2023-03-07T07:58:37Z</time>
      </trkpt>
      <trkpt lat="44.36107" lon="7.20835">
        <ele>1617.07</ele>
        <time>2023-03-07T07:58:50Z</time>
      </trkpt>
      <trkpt lat="44.3611" lon="7.20823">
        <ele>1617.56</ele>
        <time>2023-03-07T07:59:02Z</time>
      </trkpt>
      <trkpt lat="44.36114" lon="7.20809">
        <ele>1619</ele>
        <time>2023-03-07T07:59:18Z</time>
      </trkpt>
      <trkpt lat="44.36118" lon="7.20798">
        <ele>1621.88</ele>
        <time>2023-03-07T07:59:35Z</time>
      </trkpt>
      <trkpt lat="44.3612" lon="7.20788">
        <ele>1622.84</ele>
        <time>2023-03-07T07:59:51Z</time>
      </trkpt>
      <trkpt lat="44.36113" lon="7.20784">
        <ele>1623.8</ele>
        <time>2023-03-07T08:00:05Z</time>
      </trkpt>
      <trkpt lat="44.36102" lon="7.20783">
        <ele>1625.73</ele>
        <time>2023-03-07T08:00:18Z</time>
      </trkpt>
      <trkpt lat="44.36093" lon="7.20784">
        <ele>1628.61</ele>
        <time>2023-03-07T08:00:31Z</time>
      </trkpt>
      <trkpt lat="44.36083" lon="7.20784">
        <ele>1628.13</ele>
        <time>2023-03-07T08:00:47Z</time>
      </trkpt>
      <trkpt lat="44.36081" lon="7.20785">
        <ele>1629.09</ele>
        <time>2023-03-07T08:01:10Z</time>
      </trkpt>
      <trkpt lat="44.36077" lon="7.20784">
        <ele>1631.49</ele>
        <time>2023-03-07T08:01:28Z</time>
      </trkpt>
      <trkpt lat="44.36085" lon="7.20775">
        <ele>1631.49</ele>
        <time>2023-03-07T08:01:41Z</time>
      </trkpt>
      <trkpt lat="44.36073" lon="7.20778">
        <ele>1631.98</ele>
        <time>2023-03-07T08:01:55Z</time>
      </trkpt>
      <trkpt lat="44.36065" lon="7.20784">
        <ele>1634.86</ele>
        <time>2023-03-07T08:02:09Z</time>
      </trkpt>
      <trkpt lat="44.36071" lon="7.20774">
        <ele>1639.67</ele>
        <time>2023-03-07T08:02:22Z</time>
      </trkpt>
      <trkpt lat="44.36078" lon="7.20766">
        <ele>1640.15</ele>
        <time>2023-03-07T08:02:36Z</time>
      </trkpt>
      <trkpt lat="44.36081" lon="7.20754">
        <ele>1642.55</ele>
        <time>2023-03-07T08:02:52Z</time>
      </trkpt>
      <trkpt lat="44.36082" lon="7.20742">
        <ele>1642.55</ele>
        <time>2023-03-07T08:03:07Z</time>
      </trkpt>
      <trkpt lat="44.36086" lon="7.20733">
        <ele>1645.91</ele>
        <time>2023-03-07T08:03:23Z</time>
      </trkpt>
      <trkpt lat="44.3609" lon="7.20719">
        <ele>1647.84</ele>
        <time>2023-03-07T08:03:41Z</time>
      </trkpt>
      <trkpt lat="44.36094" lon="7.20705">
        <ele>1650.24</ele>
        <time>2023-03-07T08:03:59Z</time>
      </trkpt>
      <trkpt lat="44.36098" lon="7.20698">
        <ele>1653.12</ele>
        <time>2023-03-07T08:04:13Z</time>
      </trkpt>
      <trkpt lat="44.36102" lon="7.20687">
        <ele>1653.6</ele>
        <time>2023-03-07T08:04:29Z</time>
      </trkpt>
      <trkpt lat="44.36091" lon="7.20683">
        <ele>1654.57</ele>
        <time>2023-03-07T08:04:45Z</time>
      </trkpt>
      <trkpt lat="44.36079" lon="7.20683">
        <ele>1656.49</ele>
        <time>2023-03-07T08:04:58Z</time>
      </trkpt>
      <trkpt lat="44.36075" lon="7.20683">
        <ele>1660.33</ele>
        <time>2023-03-07T08:05:13Z</time>
      </trkpt>
      <trkpt lat="44.3608" lon="7.20676">
        <ele>1661.78</ele>
        <time>2023-03-07T08:05:23Z</time>
      </trkpt>
      <trkpt lat="44.36088" lon="7.20667">
        <ele>1664.18</ele>
        <time>2023-03-07T08:05:36Z</time>
      </trkpt>
      <trkpt lat="44.36092" lon="7.20658">
        <ele>1664.66</ele>
        <time>2023-03-07T08:05:49Z</time>
      </trkpt>
      <trkpt lat="44.36094" lon="7.20647">
        <ele>1665.62</ele>
        <time>2023-03-07T08:06:03Z</time>
      </trkpt>
      <trkpt lat="44.3609" lon="7.20636">
        <ele>1665.62</ele>
        <time>2023-03-07T08:06:18Z</time>
      </trkpt>
      <trkpt lat="44.36079" lon="7.20641">
        <ele>1667.06</ele>
        <time>2023-03-07T08:06:31Z</time>
      </trkpt>
      <trkpt lat="44.36071" lon="7.20647">
        <ele>1671.87</ele>
        <time>2023-03-07T08:06:49Z</time>
      </trkpt>
      <trkpt lat="44.3607" lon="7.20641">
        <ele>1675.23</ele>
        <time>2023-03-07T08:07:05Z</time>
      </trkpt>
      <trkpt lat="44.36077" lon="7.2063">
        <ele>1676.68</ele>
        <time>2023-03-07T08:07:19Z</time>
      </trkpt>
      <trkpt lat="44.3608" lon="7.20618">
        <ele>1680.04</ele>
        <time>2023-03-07T08:07:34Z</time>
      </trkpt>
      <trkpt lat="44.36081" lon="7.20608">
        <ele>1680.04</ele>
        <time>2023-03-07T08:07:47Z</time>
      </trkpt>
      <trkpt lat="44.36084" lon="7.20597">
        <ele>1681.96</ele>
        <time>2023-03-07T08:08:01Z</time>
      </trkpt>
      <trkpt lat="44.36086" lon="7.20587">
        <ele>1682.93</ele>
        <time>2023-03-07T08:08:15Z</time>
      </trkpt>
      <trkpt lat="44.36088" lon="7.20578">
        <ele>1684.85</ele>
        <time>2023-03-07T08:08:27Z</time>
      </trkpt>
      <trkpt lat="44.36089" lon="7.20566">
        <ele>1682.93</ele>
        <time>2023-03-07T08:08:43Z</time>
      </trkpt>
      <trkpt lat="44.36088" lon="7.2056">
        <ele>1685.33</ele>
        <time>2023-03-07T08:08:57Z</time>
      </trkpt>
      <trkpt lat="44.36088" lon="7.20551">
        <ele>1686.77</ele>
        <time>2023-03-07T08:09:12Z</time>
      </trkpt>
      <trkpt lat="44.36084" lon="7.20551">
        <ele>1686.77</ele>
        <time>2023-03-07T08:09:23Z</time>
      </trkpt>
      <trkpt lat="44.36075" lon="7.20558">
        <ele>1688.69</ele>
        <time>2023-03-07T08:09:37Z</time>
      </trkpt>
      <trkpt lat="44.36068" lon="7.2056">
        <ele>1690.14</ele>
        <time>2023-03-07T08:09:51Z</time>
      </trkpt>
      <trkpt lat="44.36072" lon="7.2055">
        <ele>1691.1</ele>
        <time>2023-03-07T08:10:05Z</time>
      </trkpt>
      <trkpt lat="44.36073" lon="7.20551">
        <ele>1694.94</ele>
        <time>2023-03-07T08:10:27Z</time>
      </trkpt>
      <trkpt lat="44.36074" lon="7.2055">
        <ele>1691.58</ele>
        <time>2023-03-07T08:10:50Z</time>
      </trkpt>
      <trkpt lat="44.36074" lon="7.20547">
        <ele>1693.5</ele>
        <time>2023-03-07T08:11:19Z</time>
      </trkpt>
      <trkpt lat="44.36075" lon="7.20541">
        <ele>1693.98</ele>
        <time>2023-03-07T08:11:44Z</time>
      </trkpt>
      <trkpt lat="44.36076" lon="7.20536">
        <ele>1695.9</ele>
        <time>2023-03-07T08:11:57Z</time>
      </trkpt>
      <trkpt lat="44.36077" lon="7.20527">
        <ele>1698.31</ele>
        <time>2023-03-07T08:12:09Z</time>
      </trkpt>
      <trkpt lat="44.36071" lon="7.20524">
        <ele>1698.31</ele>
        <time>2023-03-07T08:12:19Z</time>
      </trkpt>
      <trkpt lat="44.36064" lon="7.20527">
        <ele>1698.31</ele>
        <time>2023-03-07T08:12:33Z</time>
      </trkpt>
      <trkpt lat="44.36063" lon="7.20525">
        <ele>1701.19</ele>
        <time>2023-03-07T08:12:51Z</time>
      </trkpt>
      <trkpt lat="44.36069" lon="7.20517">
        <ele>1706</ele>
        <time>2023-03-07T08:13:04Z</time>
      </trkpt>
      <trkpt lat="44.3607" lon="7.20505">
        <ele>1710.8</ele>
        <time>2023-03-07T08:13:20Z</time>
      </trkpt>
      <trkpt lat="44.36064" lon="7.205">
        <ele>1711.28</ele>
        <time>2023-03-07T08:13:34Z</time>
      </trkpt>
      <trkpt lat="44.36057" lon="7.20504">
        <ele>1712.73</ele>
        <time>2023-03-07T08:13:48Z</time>
      </trkpt>
      <trkpt lat="44.3606" lon="7.20499">
        <ele>1713.69</ele>
        <time>2023-03-07T08:14:03Z</time>
      </trkpt>
      <trkpt lat="44.36062" lon="7.20489">
        <ele>1714.17</ele>
        <time>2023-03-07T08:14:15Z</time>
      </trkpt>
      <trkpt lat="44.3606" lon="7.20483">
        <ele>1718.49</ele>
        <time>2023-03-07T08:14:32Z</time>
      </trkpt>
      <trkpt lat="44.36049" lon="7.20489">
        <ele>1719.94</ele>
        <time>2023-03-07T08:14:48Z</time>
      </trkpt>
      <trkpt lat="44.36042" lon="7.20492">
        <ele>1721.86</ele>
        <time>2023-03-07T08:15:02Z</time>
      </trkpt>
      <trkpt lat="44.36036" lon="7.20495">
        <ele>1723.78</ele>
        <time>2023-03-07T08:15:18Z</time>
      </trkpt>
      <trkpt lat="44.36037" lon="7.20489">
        <ele>1725.22</ele>
        <time>2023-03-07T08:15:30Z</time>
      </trkpt>
      <trkpt lat="44.36039" lon="7.20481">
        <ele>1726.67</ele>
        <time>2023-03-07T08:15:42Z</time>
      </trkpt>
      <trkpt lat="44.36041" lon="7.20471">
        <ele>1728.59</ele>
        <time>2023-03-07T08:15:57Z</time>
      </trkpt>
      <trkpt lat="44.36041" lon="7.20461">
        <ele>1729.55</ele>
        <time>2023-03-07T08:16:11Z</time>
      </trkpt>
      <trkpt lat="44.36031" lon="7.20467">
        <ele>1731.47</ele>
        <time>2023-03-07T08:16:27Z</time>
      </trkpt>
      <trkpt lat="44.36023" lon="7.20471">
        <ele>1734.84</ele>
        <time>2023-03-07T08:16:43Z</time>
      </trkpt>
      <trkpt lat="44.36023" lon="7.20465">
        <ele>1736.76</ele>
        <time>2023-03-07T08:17:01Z</time>
      </trkpt>
      <trkpt lat="44.36025" lon="7.20458">
        <ele>1739.64</ele>
        <time>2023-03-07T08:17:14Z</time>
      </trkpt>
      <trkpt lat="44.36029" lon="7.2045">
        <ele>1739.16</ele>
        <time>2023-03-07T08:17:30Z</time>
      </trkpt>
      <trkpt lat="44.3603" lon="7.20438">
        <ele>1741.08</ele>
        <time>2023-03-07T08:17:46Z</time>
      </trkpt>
      <trkpt lat="44.36024" lon="7.20441">
        <ele>1742.05</ele>
        <time>2023-03-07T08:18:03Z</time>
      </trkpt>
      <trkpt lat="44.36019" lon="7.20441">
        <ele>1745.41</ele>
        <time>2023-03-07T08:18:22Z</time>
      </trkpt>
      <trkpt lat="44.36023" lon="7.20436">
        <ele>1745.89</ele>
        <time>2023-03-07T08:18:38Z</time>
      </trkpt>
      <trkpt lat="44.36019" lon="7.20435">
        <ele>1746.37</ele>
        <time>2023-03-07T08:18:51Z</time>
      </trkpt>
      <trkpt lat="44.36014" lon="7.20441">
        <ele>1745.89</ele>
        <time>2023-03-07T08:19:03Z</time>
      </trkpt>
      <trkpt lat="44.3601" lon="7.20445">
        <ele>1746.85</ele>
        <time>2023-03-07T08:19:17Z</time>
      </trkpt>
      <trkpt lat="44.36015" lon="7.20436">
        <ele>1749.26</ele>
        <time>2023-03-07T08:19:30Z</time>
      </trkpt>
      <trkpt lat="44.36017" lon="7.20426">
        <ele>1750.22</ele>
        <time>2023-03-07T08:19:41Z</time>
      </trkpt>
      <trkpt lat="44.3602" lon="7.20417">
        <ele>1753.58</ele>
        <time>2023-03-07T08:19:54Z</time>
      </trkpt>
      <trkpt lat="44.3602" lon="7.20409">
        <ele>1755.02</ele>
        <time>2023-03-07T08:20:09Z</time>
      </trkpt>
      <trkpt lat="44.36012" lon="7.20416">
        <ele>1757.43</ele>
        <time>2023-03-07T08:20:22Z</time>
      </trkpt>
      <trkpt lat="44.3601" lon="7.20415">
        <ele>1760.79</ele>
        <time>2023-03-07T08:20:35Z</time>
      </trkpt>
      <trkpt lat="44.36014" lon="7.20406">
        <ele>1760.31</ele>
        <time>2023-03-07T08:20:46Z</time>
      </trkpt>
      <trkpt lat="44.36014" lon="7.20403">
        <ele>1759.83</ele>
        <time>2023-03-07T08:20:58Z</time>
      </trkpt>
      <trkpt lat="44.36006" lon="7.20407">
        <ele>1762.23</ele>
        <time>2023-03-07T08:21:12Z</time>
      </trkpt>
      <trkpt lat="44.36" lon="7.20411">
        <ele>1763.68</ele>
        <time>2023-03-07T08:21:28Z</time>
      </trkpt>
      <trkpt lat="44.36004" lon="7.20404">
        <ele>1764.64</ele>
        <time>2023-03-07T08:21:40Z</time>
      </trkpt>
      <trkpt lat="44.36006" lon="7.20396">
        <ele>1766.56</ele>
        <time>2023-03-07T08:21:53Z</time>
      </trkpt>
      <trkpt lat="44.36007" lon="7.20386">
        <ele>1769.92</ele>
        <time>2023-03-07T08:22:08Z</time>
      </trkpt>
      <trkpt lat="44.36008" lon="7.20376">
        <ele>1772.81</ele>
        <time>2023-03-07T08:22:21Z</time>
      </trkpt>
      <trkpt lat="44.36011" lon="7.20367">
        <ele>1775.21</ele>
        <time>2023-03-07T08:22:34Z</time>
      </trkpt>
      <trkpt lat="44.36008" lon="7.20363">
        <ele>1776.17</ele>
        <time>2023-03-07T08:22:46Z</time>
      </trkpt>
      <trkpt lat="44.36004" lon="7.20368">
        <ele>1778.1</ele>
        <time>2023-03-07T08:23:01Z</time>
      </trkpt>
      <trkpt lat="44.35999" lon="7.20369">
        <ele>1779.54</ele>
        <time>2023-03-07T08:23:22Z</time>
      </trkpt>
      <trkpt lat="44.36002" lon="7.20364">
        <ele>1779.54</ele>
        <time>2023-03-07T08:23:36Z</time>
      </trkpt>
      <trkpt lat="44.36004" lon="7.20362">
        <ele>1780.02</ele>
        <time>2023-03-07T08:23:58Z</time>
      </trkpt>
      <trkpt lat="44.36006" lon="7.20365">
        <ele>1780.02</ele>
        <time>2023-03-07T08:24:23Z</time>
      </trkpt>
      <trkpt lat="44.36005" lon="7.20365">
        <ele>1780.98</ele>
        <time>2023-03-07T08:24:42Z</time>
      </trkpt>
      <trkpt lat="44.36005" lon="7.20364">
        <ele>1780.5</ele>
        <time>2023-03-07T08:25:03Z</time>
      </trkpt>
      <trkpt lat="44.36006" lon="7.20355">
        <ele>1780.02</ele>
        <time>2023-03-07T08:25:15Z</time>
      </trkpt>
      <trkpt lat="44.36008" lon="7.20349">
        <ele>1781.46</ele>
        <time>2023-03-07T08:25:29Z</time>
      </trkpt>
      <trkpt lat="44.36004" lon="7.20352">
        <ele>1782.42</ele>
        <time>2023-03-07T08:25:42Z</time>
      </trkpt>
      <trkpt lat="44.35995" lon="7.2036">
        <ele>1782.42</ele>
        <time>2023-03-07T08:25:56Z</time>
      </trkpt>
      <trkpt lat="44.35989" lon="7.20366">
        <ele>1784.82</ele>
        <time>2023-03-07T08:26:11Z</time>
      </trkpt>
      <trkpt lat="44.35988" lon="7.20364">
        <ele>1787.71</ele>
        <time>2023-03-07T08:26:26Z</time>
      </trkpt>
      <trkpt lat="44.35991" lon="7.20355">
        <ele>1788.19</ele>
        <time>2023-03-07T08:26:39Z</time>
      </trkpt>
      <trkpt lat="44.35995" lon="7.20342">
        <ele>1788.67</ele>
        <time>2023-03-07T08:26:53Z</time>
      </trkpt>
      <trkpt lat="44.35994" lon="7.20332">
        <ele>1790.59</ele>
        <time>2023-03-07T08:27:06Z</time>
      </trkpt>
      <trkpt lat="44.35989" lon="7.20342">
        <ele>1790.59</ele>
        <time>2023-03-07T08:27:18Z</time>
      </trkpt>
      <trkpt lat="44.35985" lon="7.20347">
        <ele>1792.03</ele>
        <time>2023-03-07T08:27:31Z</time>
      </trkpt>
      <trkpt lat="44.35987" lon="7.20338">
        <ele>1793.96</ele>
        <time>2023-03-07T08:27:40Z</time>
      </trkpt>
      <trkpt lat="44.35988" lon="7.20326">
        <ele>1794.92</ele>
        <time>2023-03-07T08:27:57Z</time>
      </trkpt>
      <trkpt lat="44.35983" lon="7.20324">
        <ele>1796.36</ele>
        <time>2023-03-07T08:28:09Z</time>
      </trkpt>
      <trkpt lat="44.35979" lon="7.20333">
        <ele>1799.73</ele>
        <time>2023-03-07T08:28:29Z</time>
      </trkpt>
      <trkpt lat="44.35979" lon="7.20335">
        <ele>1802.61</ele>
        <time>2023-03-07T08:28:46Z</time>
      </trkpt>
      <trkpt lat="44.35976" lon="7.20338">
        <ele>1803.57</ele>
        <time>2023-03-07T08:29:00Z</time>
      </trkpt>
      <trkpt lat="44.35977" lon="7.20328">
        <ele>1803.57</ele>
        <time>2023-03-07T08:29:12Z</time>
      </trkpt>
      <trkpt lat="44.35973" lon="7.20334">
        <ele>1804.53</ele>
        <time>2023-03-07T08:29:24Z</time>
      </trkpt>
      <trkpt lat="44.3597" lon="7.20332">
        <ele>1805.01</ele>
        <time>2023-03-07T08:29:40Z</time>
      </trkpt>
      <trkpt lat="44.35971" lon="7.20325">
        <ele>1807.42</ele>
        <time>2023-03-07T08:29:53Z</time>
      </trkpt>
      <trkpt lat="44.35965" lon="7.20331">
        <ele>1807.42</ele>
        <time>2023-03-07T08:30:10Z</time>
      </trkpt>
      <trkpt lat="44.35963" lon="7.20327">
        <ele>1809.34</ele>
        <time>2023-03-07T08:30:23Z</time>
      </trkpt>
      <trkpt lat="44.35966" lon="7.20319">
        <ele>1811.74</ele>
        <time>2023-03-07T08:30:38Z</time>
      </trkpt>
      <trkpt lat="44.35958" lon="7.20329">
        <ele>1813.18</ele>
        <time>2023-03-07T08:30:54Z</time>
      </trkpt>
      <trkpt lat="44.35954" lon="7.20333">
        <ele>1815.11</ele>
        <time>2023-03-07T08:31:11Z</time>
      </trkpt>
      <trkpt lat="44.35956" lon="7.20326">
        <ele>1815.11</ele>
        <time>2023-03-07T08:31:24Z</time>
      </trkpt>
      <trkpt lat="44.35954" lon="7.20317">
        <ele>1816.07</ele>
        <time>2023-03-07T08:31:38Z</time>
      </trkpt>
      <trkpt lat="44.35947" lon="7.20326">
        <ele>1817.99</ele>
        <time>2023-03-07T08:31:54Z</time>
      </trkpt>
      <trkpt lat="44.35943" lon="7.20328">
        <ele>1819.43</ele>
        <time>2023-03-07T08:32:09Z</time>
      </trkpt>
      <trkpt lat="44.35946" lon="7.20318">
        <ele>1819.91</ele>
        <time>2023-03-07T08:32:24Z</time>
      </trkpt>
      <trkpt lat="44.35948" lon="7.20307">
        <ele>1822.8</ele>
        <time>2023-03-07T08:32:40Z</time>
      </trkpt>
      <trkpt lat="44.35942" lon="7.20309">
        <ele>1824.24</ele>
        <time>2023-03-07T08:32:54Z</time>
      </trkpt>
      <trkpt lat="44.35942" lon="7.20305">
        <ele>1825.68</ele>
        <time>2023-03-07T08:33:07Z</time>
      </trkpt>
      <trkpt lat="44.35946" lon="7.20296">
        <ele>1826.16</ele>
        <time>2023-03-07T08:33:21Z</time>
      </trkpt>
      <trkpt lat="44.35945" lon="7.20294">
        <ele>1827.12</ele>
        <time>2023-03-07T08:33:33Z</time>
      </trkpt>
      <trkpt lat="44.35938" lon="7.20301">
        <ele>1830.01</ele>
        <time>2023-03-07T08:33:51Z</time>
      </trkpt>
      <trkpt lat="44.35928" lon="7.20315">
        <ele>1835.77</ele>
        <time>2023-03-07T08:34:08Z</time>
      </trkpt>
      <trkpt lat="44.35923" lon="7.20323">
        <ele>1841.06</ele>
        <time>2023-03-07T08:34:22Z</time>
      </trkpt>
      <trkpt lat="44.35918" lon="7.20328">
        <ele>1838.66</ele>
        <time>2023-03-07T08:34:40Z</time>
      </trkpt>
      <trkpt lat="44.35915" lon="7.20333">
        <ele>1839.14</ele>
        <time>2023-03-07T08:35:01Z</time>
      </trkpt>
      <trkpt lat="44.35913" lon="7.20335">
        <ele>1838.18</ele>
        <time>2023-03-07T08:35:19Z</time>
      </trkpt>
      <trkpt lat="44.3591" lon="7.20341">
        <ele>1842.02</ele>
        <time>2023-03-07T08:35:37Z</time>
      </trkpt>
      <trkpt lat="44.35913" lon="7.20326">
        <ele>1843.47</ele>
        <time>2023-03-07T08:35:55Z</time>
      </trkpt>
      <trkpt lat="44.35909" lon="7.2033">
        <ele>1841.06</ele>
        <time>2023-03-07T08:36:10Z</time>
      </trkpt>
      <trkpt lat="44.359" lon="7.20345">
        <ele>1841.06</ele>
        <time>2023-03-07T08:36:29Z</time>
      </trkpt>
      <trkpt lat="44.35894" lon="7.20356">
        <ele>1841.06</ele>
        <time>2023-03-07T08:36:45Z</time>
      </trkpt>
      <trkpt lat="44.3589" lon="7.20362">
        <ele>1846.35</ele>
        <time>2023-03-07T08:37:03Z</time>
      </trkpt>
      <trkpt lat="44.35886" lon="7.20365">
        <ele>1850.68</ele>
        <time>2023-03-07T08:37:17Z</time>
      </trkpt>
      <trkpt lat="44.35883" lon="7.20367">
        <ele>1852.6</ele>
        <time>2023-03-07T08:37:33Z</time>
      </trkpt>
      <trkpt lat="44.35881" lon="7.20368">
        <ele>1854.04</ele>
        <time>2023-03-07T08:37:49Z</time>
      </trkpt>
      <trkpt lat="44.35881" lon="7.20362">
        <ele>1855</ele>
        <time>2023-03-07T08:38:03Z</time>
      </trkpt>
      <trkpt lat="44.35884" lon="7.20354">
        <ele>1856.92</ele>
        <time>2023-03-07T08:38:19Z</time>
      </trkpt>
      <trkpt lat="44.3588" lon="7.20354">
        <ele>1856.92</ele>
        <time>2023-03-07T08:38:34Z</time>
      </trkpt>
      <trkpt lat="44.35883" lon="7.2035">
        <ele>1858.37</ele>
        <time>2023-03-07T08:38:53Z</time>
      </trkpt>
      <trkpt lat="44.35885" lon="7.20346">
        <ele>1855.96</ele>
        <time>2023-03-07T08:39:09Z</time>
      </trkpt>
      <trkpt lat="44.35882" lon="7.20342">
        <ele>1857.4</ele>
        <time>2023-03-07T08:39:27Z</time>
      </trkpt>
      <trkpt lat="44.35881" lon="7.20352">
        <ele>1857.89</ele>
        <time>2023-03-07T08:39:44Z</time>
      </trkpt>
      <trkpt lat="44.35879" lon="7.20357">
        <ele>1859.81</ele>
        <time>2023-03-07T08:40:00Z</time>
      </trkpt>
      <trkpt lat="44.35876" lon="7.20359">
        <ele>1860.77</ele>
        <time>2023-03-07T08:40:16Z</time>
      </trkpt>
      <trkpt lat="44.35876" lon="7.20355">
        <ele>1860.29</ele>
        <time>2023-03-07T08:40:32Z</time>
      </trkpt>
      <trkpt lat="44.35878" lon="7.20353">
        <ele>1860.77</ele>
        <time>2023-03-07T08:40:48Z</time>
      </trkpt>
      <trkpt lat="44.35879" lon="7.20349">
        <ele>1861.25</ele>
        <time>2023-03-07T08:41:03Z</time>
      </trkpt>
      <trkpt lat="44.35877" lon="7.20346">
        <ele>1862.69</ele>
        <time>2023-03-07T08:41:18Z</time>
      </trkpt>
      <trkpt lat="44.35876" lon="7.20353">
        <ele>1862.21</ele>
        <time>2023-03-07T08:41:36Z</time>
      </trkpt>
      <trkpt lat="44.35873" lon="7.20356">
        <ele>1863.65</ele>
        <time>2023-03-07T08:41:51Z</time>
      </trkpt>
      <trkpt lat="44.3587" lon="7.20359">
        <ele>1865.09</ele>
        <time>2023-03-07T08:42:03Z</time>
      </trkpt>
      <trkpt lat="44.35869" lon="7.20358">
        <ele>1865.58</ele>
        <time>2023-03-07T08:42:16Z</time>
      </trkpt>
      <trkpt lat="44.35871" lon="7.20352">
        <ele>1867.5</ele>
        <time>2023-03-07T08:42:30Z</time>
      </trkpt>
      <trkpt lat="44.35876" lon="7.20343">
        <ele>1867.02</ele>
        <time>2023-03-07T08:42:43Z</time>
      </trkpt>
      <trkpt lat="44.35876" lon="7.20337">
        <ele>1867.98</ele>
        <time>2023-03-07T08:43:00Z</time>
      </trkpt>
      <trkpt lat="44.35872" lon="7.20341">
        <ele>1866.06</ele>
        <time>2023-03-07T08:43:14Z</time>
      </trkpt>
      <trkpt lat="44.35869" lon="7.20347">
        <ele>1867.98</ele>
        <time>2023-03-07T08:43:32Z</time>
      </trkpt>
      <trkpt lat="44.35866" lon="7.20353">
        <ele>1871.82</ele>
        <time>2023-03-07T08:43:46Z</time>
      </trkpt>
      <trkpt lat="44.35867" lon="7.20347">
        <ele>1872.3</ele>
        <time>2023-03-07T08:44:04Z</time>
      </trkpt>
      <trkpt lat="44.35868" lon="7.20335">
        <ele>1874.71</ele>
        <time>2023-03-07T08:44:18Z</time>
      </trkpt>
      <trkpt lat="44.35868" lon="7.20335">
        <ele>1875.19</ele>
        <time>2023-03-07T08:44:41Z</time>
      </trkpt>
      <trkpt lat="44.35867" lon="7.20333">
        <ele>1872.79</ele>
        <time>2023-03-07T08:45:04Z</time>
      </trkpt>
      <trkpt lat="44.35868" lon="7.20335">
        <ele>1872.3</ele>
        <time>2023-03-07T08:45:33Z</time>
      </trkpt>
      <trkpt lat="44.35867" lon="7.2033">
        <ele>1874.23</ele>
        <time>2023-03-07T08:45:47Z</time>
      </trkpt>
      <trkpt lat="44.35867" lon="7.20322">
        <ele>1876.63</ele>
        <time>2023-03-07T08:45:59Z</time>
      </trkpt>
      <trkpt lat="44.35866" lon="7.20315">
        <ele>1878.07</ele>
        <time>2023-03-07T08:46:11Z</time>
      </trkpt>
      <trkpt lat="44.35867" lon="7.20306">
        <ele>1880.48</ele>
        <time>2023-03-07T08:46:24Z</time>
      </trkpt>
      <trkpt lat="44.35867" lon="7.20299">
        <ele>1881.92</ele>
        <time>2023-03-07T08:46:37Z</time>
      </trkpt>
      <trkpt lat="44.35866" lon="7.20295">
        <ele>1883.36</ele>
        <time>2023-03-07T08:46:51Z</time>
      </trkpt>
      <trkpt lat="44.35865" lon="7.20289">
        <ele>1884.8</ele>
        <time>2023-03-07T08:47:08Z</time>
      </trkpt>
      <trkpt lat="44.35866" lon="7.20284">
        <ele>1886.72</ele>
        <time>2023-03-07T08:47:22Z</time>
      </trkpt>
      <trkpt lat="44.35867" lon="7.20278">
        <ele>1888.17</ele>
        <time>2023-03-07T08:47:37Z</time>
      </trkpt>
      <trkpt lat="44.35868" lon="7.20272">
        <ele>1889.13</ele>
        <time>2023-03-07T08:47:53Z</time>
      </trkpt>
      <trkpt lat="44.35867" lon="7.20271">
        <ele>1890.09</ele>
        <time>2023-03-07T08:48:14Z</time>
      </trkpt>
      <trkpt lat="44.3587" lon="7.20268">
        <ele>1893.45</ele>
        <time>2023-03-07T08:48:35Z</time>
      </trkpt>
      <trkpt lat="44.3587" lon="7.20268">
        <ele>1893.45</ele>
        <time>2023-03-07T08:48:53Z</time>
      </trkpt>
      <trkpt lat="44.35871" lon="7.20265">
        <ele>1892.49</ele>
        <time>2023-03-07T08:49:09Z</time>
      </trkpt>
      <trkpt lat="44.35873" lon="7.20261">
        <ele>1892.97</ele>
        <time>2023-03-07T08:49:26Z</time>
      </trkpt>
      <trkpt lat="44.35873" lon="7.20258">
        <ele>1894.42</ele>
        <time>2023-03-07T08:49:46Z</time>
      </trkpt>
      <trkpt lat="44.35875" lon="7.20259">
        <ele>1893.93</ele>
        <time>2023-03-07T08:50:01Z</time>
      </trkpt>
      <trkpt lat="44.35874" lon="7.20257">
        <ele>1895.38</ele>
        <time>2023-03-07T08:50:19Z</time>
      </trkpt>
      <trkpt lat="44.35873" lon="7.20255">
        <ele>1893.45</ele>
        <time>2023-03-07T08:50:41Z</time>
      </trkpt>
      <trkpt lat="44.35874" lon="7.20252">
        <ele>1893.45</ele>
        <time>2023-03-07T08:51:01Z</time>
      </trkpt>
      <trkpt lat="44.35875" lon="7.20249">
        <ele>1893.93</ele>
        <time>2023-03-07T08:51:16Z</time>
      </trkpt>
      <trkpt lat="44.35875" lon="7.20241">
        <ele>1895.38</ele>
        <time>2023-03-07T08:51:29Z</time>
      </trkpt>
      <trkpt lat="44.35876" lon="7.20239">
        <ele>1895.86</ele>
        <time>2023-03-07T08:51:45Z</time>
      </trkpt>
      <trkpt lat="44.35875" lon="7.20236">
        <ele>1895.86</ele>
        <time>2023-03-07T08:51:59Z</time>
      </trkpt>
      <trkpt lat="44.3587" lon="7.20241">
        <ele>1895.38</ele>
        <time>2023-03-07T08:52:17Z</time>
      </trkpt>
      <trkpt lat="44.35867" lon="7.20244">
        <ele>1897.78</ele>
        <time>2023-03-07T08:52:33Z</time>
      </trkpt>
      <trkpt lat="44.3587" lon="7.20235">
        <ele>1898.74</ele>
        <time>2023-03-07T08:52:50Z</time>
      </trkpt>
      <trkpt lat="44.35872" lon="7.2023">
        <ele>1901.14</ele>
        <time>2023-03-07T08:53:11Z</time>
      </trkpt>
      <trkpt lat="44.35875" lon="7.20224">
        <ele>1901.63</ele>
        <time>2023-03-07T08:53:32Z</time>
      </trkpt>
      <trkpt lat="44.35874" lon="7.20219">
        <ele>1902.11</ele>
        <time>2023-03-07T08:53:36Z</time>
      </trkpt>
      <trkpt lat="44.35875" lon="7.20206">
        <ele>1903.55</ele>
        <time>2023-03-07T08:53:50Z</time>
      </trkpt>
      <trkpt lat="44.35874" lon="7.20202">
        <ele>1904.51</ele>
        <time>2023-03-07T08:54:09Z</time>
      </trkpt>
      <trkpt lat="44.35873" lon="7.20194">
        <ele>1904.03</ele>
        <time>2023-03-07T08:54:27Z</time>
      </trkpt>
      <trkpt lat="44.35875" lon="7.20183">
        <ele>1906.43</ele>
        <time>2023-03-07T08:54:43Z</time>
      </trkpt>
      <trkpt lat="44.35878" lon="7.20169">
        <ele>1907.87</ele>
        <time>2023-03-07T08:54:57Z</time>
      </trkpt>
      <trkpt lat="44.35883" lon="7.20158">
        <ele>1908.35</ele>
        <time>2023-03-07T08:55:13Z</time>
      </trkpt>
      <trkpt lat="44.35887" lon="7.20144">
        <ele>1909.32</ele>
        <time>2023-03-07T08:55:31Z</time>
      </trkpt>
      <trkpt lat="44.35887" lon="7.20133">
        <ele>1912.2</ele>
        <time>2023-03-07T08:55:47Z</time>
      </trkpt>
      <trkpt lat="44.35889" lon="7.20126">
        <ele>1913.16</ele>
        <time>2023-03-07T08:56:00Z</time>
      </trkpt>
      <trkpt lat="44.35891" lon="7.20119">
        <ele>1915.56</ele>
        <time>2023-03-07T08:56:16Z</time>
      </trkpt>
      <trkpt lat="44.35894" lon="7.20111">
        <ele>1918.45</ele>
        <time>2023-03-07T08:56:31Z</time>
      </trkpt>
      <trkpt lat="44.35896" lon="7.20107">
        <ele>1919.89</ele>
        <time>2023-03-07T08:56:49Z</time>
      </trkpt>
      <trkpt lat="44.35897" lon="7.20105">
        <ele>1922.77</ele>
        <time>2023-03-07T08:57:10Z</time>
      </trkpt>
      <trkpt lat="44.35897" lon="7.20101">
        <ele>1922.29</ele>
        <time>2023-03-07T08:57:28Z</time>
      </trkpt>
      <trkpt lat="44.35897" lon="7.201">
        <ele>1921.33</ele>
        <time>2023-03-07T08:57:44Z</time>
      </trkpt>
      <trkpt lat="44.35898" lon="7.201">
        <ele>1922.29</ele>
        <time>2023-03-07T08:58:00Z</time>
      </trkpt>
      <trkpt lat="44.35897" lon="7.20101">
        <ele>1923.74</ele>
        <time>2023-03-07T08:58:18Z</time>
      </trkpt>
      <trkpt lat="44.35892" lon="7.20102">
        <ele>1924.22</ele>
        <time>2023-03-07T08:58:35Z</time>
      </trkpt>
      <trkpt lat="44.3589" lon="7.20105">
        <ele>1924.22</ele>
        <time>2023-03-07T08:58:50Z</time>
      </trkpt>
      <trkpt lat="44.35888" lon="7.20106">
        <ele>1924.22</ele>
        <time>2023-03-07T08:59:10Z</time>
      </trkpt>
      <trkpt lat="44.35884" lon="7.20108">
        <ele>1925.18</ele>
        <time>2023-03-07T08:59:24Z</time>
      </trkpt>
      <trkpt lat="44.3588" lon="7.20105">
        <ele>1926.14</ele>
        <time>2023-03-07T08:59:42Z</time>
      </trkpt>
      <trkpt lat="44.35881" lon="7.20103">
        <ele>1925.66</ele>
        <time>2023-03-07T09:00:00Z</time>
      </trkpt>
      <trkpt lat="44.35885" lon="7.20101">
        <ele>1925.66</ele>
        <time>2023-03-07T09:00:16Z</time>
      </trkpt>
      <trkpt lat="44.35889" lon="7.20094">
        <ele>1928.54</ele>
        <time>2023-03-07T09:00:29Z</time>
      </trkpt>
      <trkpt lat="44.35889" lon="7.20087">
        <ele>1931.43</ele>
        <time>2023-03-07T09:00:45Z</time>
      </trkpt>
      <trkpt lat="44.3589" lon="7.2008">
        <ele>1933.83</ele>
        <time>2023-03-07T09:01:01Z</time>
      </trkpt>
      <trkpt lat="44.35891" lon="7.20073">
        <ele>1936.71</ele>
        <time>2023-03-07T09:01:14Z</time>
      </trkpt>
      <trkpt lat="44.3589" lon="7.2007">
        <ele>1939.12</ele>
        <time>2023-03-07T09:01:37Z</time>
      </trkpt>
      <trkpt lat="44.35892" lon="7.20068">
        <ele>1939.6</ele>
        <time>2023-03-07T09:01:52Z</time>
      </trkpt>
      <trkpt lat="44.35893" lon="7.20063">
        <ele>1940.08</ele>
        <time>2023-03-07T09:02:09Z</time>
      </trkpt>
      <trkpt lat="44.35894" lon="7.20059">
        <ele>1941.52</ele>
        <time>2023-03-07T09:02:24Z</time>
      </trkpt>
      <trkpt lat="44.35894" lon="7.20054">
        <ele>1943.92</ele>
        <time>2023-03-07T09:02:38Z</time>
      </trkpt>
      <trkpt lat="44.35893" lon="7.20056">
        <ele>1944.88</ele>
        <time>2023-03-07T09:02:54Z</time>
      </trkpt>
      <trkpt lat="44.35887" lon="7.20059">
        <ele>1947.29</ele>
        <time>2023-03-07T09:03:11Z</time>
      </trkpt>
      <trkpt lat="44.35887" lon="7.20055">
        <ele>1946.81</ele>
        <time>2023-03-07T09:03:27Z</time>
      </trkpt>
      <trkpt lat="44.3589" lon="7.2005">
        <ele>1948.25</ele>
        <time>2023-03-07T09:03:41Z</time>
      </trkpt>
      <trkpt lat="44.35893" lon="7.20045">
        <ele>1951.61</ele>
        <time>2023-03-07T09:03:59Z</time>
      </trkpt>
      <trkpt lat="44.35895" lon="7.20039">
        <ele>1952.57</ele>
        <time>2023-03-07T09:04:14Z</time>
      </trkpt>
      <trkpt lat="44.35899" lon="7.20028">
        <ele>1951.13</ele>
        <time>2023-03-07T09:04:30Z</time>
      </trkpt>
      <trkpt lat="44.359" lon="7.20023">
        <ele>1950.65</ele>
        <time>2023-03-07T09:04:43Z</time>
      </trkpt>
      <trkpt lat="44.35892" lon="7.20031">
        <ele>1949.69</ele>
        <time>2023-03-07T09:04:57Z</time>
      </trkpt>
      <trkpt lat="44.35893" lon="7.20029">
        <ele>1950.17</ele>
        <time>2023-03-07T09:05:13Z</time>
      </trkpt>
      <trkpt lat="44.35898" lon="7.20021">
        <ele>1952.09</ele>
        <time>2023-03-07T09:05:29Z</time>
      </trkpt>
      <trkpt lat="44.359" lon="7.20012">
        <ele>1954.02</ele>
        <time>2023-03-07T09:05:43Z</time>
      </trkpt>
      <trkpt lat="44.35903" lon="7.20008">
        <ele>1956.42</ele>
        <time>2023-03-07T09:06:00Z</time>
      </trkpt>
      <trkpt lat="44.35904" lon="7.20005">
        <ele>1957.86</ele>
        <time>2023-03-07T09:06:15Z</time>
      </trkpt>
      <trkpt lat="44.35905" lon="7.20003">
        <ele>1958.82</ele>
        <time>2023-03-07T09:06:32Z</time>
      </trkpt>
      <trkpt lat="44.35908" lon="7.19999">
        <ele>1958.82</ele>
        <time>2023-03-07T09:06:50Z</time>
      </trkpt>
      <trkpt lat="44.35913" lon="7.19995">
        <ele>1958.82</ele>
        <time>2023-03-07T09:07:07Z</time>
      </trkpt>
      <trkpt lat="44.35916" lon="7.19993">
        <ele>1959.3</ele>
        <time>2023-03-07T09:07:23Z</time>
      </trkpt>
      <trkpt lat="44.35918" lon="7.19992">
        <ele>1959.78</ele>
        <time>2023-03-07T09:07:37Z</time>
      </trkpt>
      <trkpt lat="44.35921" lon="7.19987">
        <ele>1960.27</ele>
        <time>2023-03-07T09:07:53Z</time>
      </trkpt>
      <trkpt lat="44.35924" lon="7.1998">
        <ele>1961.71</ele>
        <time>2023-03-07T09:08:08Z</time>
      </trkpt>
      <trkpt lat="44.35926" lon="7.19973">
        <ele>1963.63</ele>
        <time>2023-03-07T09:08:23Z</time>
      </trkpt>
      <trkpt lat="44.35923" lon="7.19975">
        <ele>1963.63</ele>
        <time>2023-03-07T09:08:39Z</time>
      </trkpt>
      <trkpt lat="44.35918" lon="7.19977">
        <ele>1965.07</ele>
        <time>2023-03-07T09:08:53Z</time>
      </trkpt>
      <trkpt lat="44.35916" lon="7.1998">
        <ele>1967.48</ele>
        <time>2023-03-07T09:09:10Z</time>
      </trkpt>
      <trkpt lat="44.35918" lon="7.19974">
        <ele>1966.51</ele>
        <time>2023-03-07T09:09:26Z</time>
      </trkpt>
      <trkpt lat="44.3592" lon="7.19966">
        <ele>1968.44</ele>
        <time>2023-03-07T09:09:41Z</time>
      </trkpt>
      <trkpt lat="44.35921" lon="7.19964">
        <ele>1969.88</ele>
        <time>2023-03-07T09:09:55Z</time>
      </trkpt>
      <trkpt lat="44.35917" lon="7.19966">
        <ele>1969.88</ele>
        <time>2023-03-07T09:10:09Z</time>
      </trkpt>
      <trkpt lat="44.35914" lon="7.19969">
        <ele>1970.84</ele>
        <time>2023-03-07T09:10:25Z</time>
      </trkpt>
      <trkpt lat="44.35912" lon="7.19971">
        <ele>1973.24</ele>
        <time>2023-03-07T09:10:41Z</time>
      </trkpt>
      <trkpt lat="44.35914" lon="7.19967">
        <ele>1971.32</ele>
        <time>2023-03-07T09:10:57Z</time>
      </trkpt>
      <trkpt lat="44.35916" lon="7.19961">
        <ele>1973.24</ele>
        <time>2023-03-07T09:11:14Z</time>
      </trkpt>
      <trkpt lat="44.35917" lon="7.19954">
        <ele>1975.65</ele>
        <time>2023-03-07T09:11:27Z</time>
      </trkpt>
      <trkpt lat="44.3592" lon="7.19947">
        <ele>1978.53</ele>
        <time>2023-03-07T09:11:41Z</time>
      </trkpt>
      <trkpt lat="44.35921" lon="7.19944">
        <ele>1979.01</ele>
        <time>2023-03-07T09:11:54Z</time>
      </trkpt>
      <trkpt lat="44.35917" lon="7.19946">
        <ele>1977.57</ele>
        <time>2023-03-07T09:12:09Z</time>
      </trkpt>
      <trkpt lat="44.35912" lon="7.19947">
        <ele>1979.49</ele>
        <time>2023-03-07T09:12:24Z</time>
      </trkpt>
      <trkpt lat="44.35913" lon="7.19946">
        <ele>1980.45</ele>
        <time>2023-03-07T09:12:43Z</time>
      </trkpt>
      <trkpt lat="44.35912" lon="7.19945">
        <ele>1980.45</ele>
        <time>2023-03-07T09:13:10Z</time>
      </trkpt>
      <trkpt lat="44.35914" lon="7.19943">
        <ele>1982.38</ele>
        <time>2023-03-07T09:13:28Z</time>
      </trkpt>
      <trkpt lat="44.35916" lon="7.19939">
        <ele>1984.78</ele>
        <time>2023-03-07T09:13:45Z</time>
      </trkpt>
      <trkpt lat="44.35918" lon="7.19937">
        <ele>1983.82</ele>
        <time>2023-03-07T09:14:01Z</time>
      </trkpt>
      <trkpt lat="44.35918" lon="7.19936">
        <ele>1983.34</ele>
        <time>2023-03-07T09:14:15Z</time>
      </trkpt>
      <trkpt lat="44.35917" lon="7.19934">
        <ele>1983.82</ele>
        <time>2023-03-07T09:14:28Z</time>
      </trkpt>
      <trkpt lat="44.35914" lon="7.19935">
        <ele>1983.34</ele>
        <time>2023-03-07T09:14:40Z</time>
      </trkpt>
      <trkpt lat="44.35911" lon="7.19934">
        <ele>1984.78</ele>
        <time>2023-03-07T09:14:56Z</time>
      </trkpt>
      <trkpt lat="44.35914" lon="7.19933">
        <ele>1985.26</ele>
        <time>2023-03-07T09:15:11Z</time>
      </trkpt>
      <trkpt lat="44.35914" lon="7.19929">
        <ele>1986.7</ele>
        <time>2023-03-07T09:15:27Z</time>
      </trkpt>
      <trkpt lat="44.35909" lon="7.19931">
        <ele>1988.14</ele>
        <time>2023-03-07T09:15:42Z</time>
      </trkpt>
      <trkpt lat="44.35909" lon="7.19931">
        <ele>1990.07</ele>
        <time>2023-03-07T09:16:05Z</time>
      </trkpt>
      <trkpt lat="44.35909" lon="7.19928">
        <ele>1989.1</ele>
        <time>2023-03-07T09:16:28Z</time>
      </trkpt>
      <trkpt lat="44.3591" lon="7.19927">
        <ele>1988.62</ele>
        <time>2023-03-07T09:16:47Z</time>
      </trkpt>
      <trkpt lat="44.35911" lon="7.19923">
        <ele>1991.03</ele>
        <time>2023-03-07T09:17:11Z</time>
      </trkpt>
      <trkpt lat="44.35911" lon="7.19925">
        <ele>1990.07</ele>
        <time>2023-03-07T09:17:31Z</time>
      </trkpt>
      <trkpt lat="44.35909" lon="7.19927">
        <ele>1989.1</ele>
        <time>2023-03-07T09:17:51Z</time>
      </trkpt>
      <trkpt lat="44.35908" lon="7.19928">
        <ele>1986.7</ele>
        <time>2023-03-07T09:18:14Z</time>
      </trkpt>
      <trkpt lat="44.35908" lon="7.19928">
        <ele>1987.18</ele>
        <time>2023-03-07T09:18:40Z</time>
      </trkpt>
      <trkpt lat="44.35908" lon="7.19927">
        <ele>1989.59</ele>
        <time>2023-03-07T09:19:06Z</time>
      </trkpt>
      <trkpt lat="44.35909" lon="7.19928">
        <ele>1990.07</ele>
        <time>2023-03-07T09:19:32Z</time>
      </trkpt>
      <trkpt lat="44.3591" lon="7.19926">
        <ele>1989.59</ele>
        <time>2023-03-07T09:19:53Z</time>
      </trkpt>
      <trkpt lat="44.35914" lon="7.19926">
        <ele>1989.1</ele>
        <time>2023-03-07T09:20:14Z</time>
      </trkpt>
      <trkpt lat="44.35916" lon="7.19925">
        <ele>1989.1</ele>
        <time>2023-03-07T09:20:32Z</time>
      </trkpt>
      <trkpt lat="44.35917" lon="7.19924">
        <ele>1988.62</ele>
        <time>2023-03-07T09:20:53Z</time>
      </trkpt>
      <trkpt lat="44.35919" lon="7.19924">
        <ele>1988.62</ele>
        <time>2023-03-07T09:21:13Z</time>
      </trkpt>
      <trkpt lat="44.35918" lon="7.19922">
        <ele>1989.1</ele>
        <time>2023-03-07T09:21:33Z</time>
      </trkpt>
      <trkpt lat="44.35916" lon="7.19922">
        <ele>1989.1</ele>
        <time>2023-03-07T09:21:54Z</time>
      </trkpt>
      <trkpt lat="44.35916" lon="7.19922">
        <ele>1989.59</ele>
        <time>2023-03-07T09:22:14Z</time>
      </trkpt>
      <trkpt lat="44.35915" lon="7.19921">
        <ele>1990.55</ele>
        <time>2023-03-07T09:22:30Z</time>
      </trkpt>
      <trkpt lat="44.35917" lon="7.1992">
        <ele>1991.03</ele>
        <time>2023-03-07T09:22:48Z</time>
      </trkpt>
      <trkpt lat="44.35919" lon="7.19918">
        <ele>1990.55</ele>
        <time>2023-03-07T09:23:05Z</time>
      </trkpt>
      <trkpt lat="44.35919" lon="7.1992">
        <ele>1988.62</ele>
        <time>2023-03-07T09:23:29Z</time>
      </trkpt>
      <trkpt lat="44.3592" lon="7.19918">
        <ele>1989.1</ele>
        <time>2023-03-07T09:23:47Z</time>
      </trkpt>
      <trkpt lat="44.3592" lon="7.19917">
        <ele>1989.59</ele>
        <time>2023-03-07T09:24:16Z</time>
      </trkpt>
      <trkpt lat="44.35923" lon="7.19919">
        <ele>1987.18</ele>
        <time>2023-03-07T09:24:42Z</time>
      </trkpt>
      <trkpt lat="44.35922" lon="7.19917">
        <ele>1986.22</ele>
        <time>2023-03-07T09:25:02Z</time>
      </trkpt>
      <trkpt lat="44.35919" lon="7.19916">
        <ele>1991.99</ele>
        <time>2023-03-07T09:25:27Z</time>
      </trkpt>
      <trkpt lat="44.35919" lon="7.19914">
        <ele>1994.39</ele>
        <time>2023-03-07T09:25:51Z</time>
      </trkpt>
      <trkpt lat="44.35918" lon="7.19914">
        <ele>1995.35</ele>
        <time>2023-03-07T09:26:16Z</time>
      </trkpt>
      <trkpt lat="44.35917" lon="7.19916">
        <ele>1994.87</ele>
        <time>2023-03-07T09:26:32Z</time>
      </trkpt>
      <trkpt lat="44.3592" lon="7.19915">
        <ele>1994.39</ele>
        <time>2023-03-07T09:26:51Z</time>
      </trkpt>
      <trkpt lat="44.35924" lon="7.19904">
        <ele>1992.47</ele>
        <time>2023-03-07T09:27:05Z</time>
      </trkpt>
      <trkpt lat="44.35927" lon="7.1989">
        <ele>1990.55</ele>
        <time>2023-03-07T09:27:18Z</time>
      </trkpt>
      <trkpt lat="44.35932" lon="7.19876">
        <ele>1990.07</ele>
        <time>2023-03-07T09:27:32Z</time>
      </trkpt>
      <trkpt lat="44.35936" lon="7.19869">
        <ele>1989.1</ele>
        <time>2023-03-07T09:27:45Z</time>
      </trkpt>
      <trkpt lat="44.35939" lon="7.19854">
        <ele>1989.1</ele>
        <time>2023-03-07T09:27:59Z</time>
      </trkpt>
      <trkpt lat="44.35941" lon="7.19838">
        <ele>1990.07</ele>
        <time>2023-03-07T09:28:14Z</time>
      </trkpt>
      <trkpt lat="44.35943" lon="7.19828">
        <ele>1991.99</ele>
        <time>2023-03-07T09:28:26Z</time>
      </trkpt>
      <trkpt lat="44.35946" lon="7.19819">
        <ele>1992.47</ele>
        <time>2023-03-07T09:28:39Z</time>
      </trkpt>
      <trkpt lat="44.3595" lon="7.19804">
        <ele>1994.87</ele>
        <time>2023-03-07T09:28:54Z</time>
      </trkpt>
      <trkpt lat="44.35953" lon="7.19791">
        <ele>1996.8</ele>
        <time>2023-03-07T09:29:08Z</time>
      </trkpt>
      <trkpt lat="44.35954" lon="7.19779">
        <ele>1996.8</ele>
        <time>2023-03-07T09:29:21Z</time>
      </trkpt>
      <trkpt lat="44.35955" lon="7.19771">
        <ele>1997.28</ele>
        <time>2023-03-07T09:29:36Z</time>
      </trkpt>
      <trkpt lat="44.35957" lon="7.19767">
        <ele>1997.76</ele>
        <time>2023-03-07T09:29:51Z</time>
      </trkpt>
      <trkpt lat="44.35958" lon="7.19762">
        <ele>1998.24</ele>
        <time>2023-03-07T09:30:04Z</time>
      </trkpt>
      <trkpt lat="44.35958" lon="7.19755">
        <ele>2000.16</ele>
        <time>2023-03-07T09:30:17Z</time>
      </trkpt>
      <trkpt lat="44.35963" lon="7.19745">
        <ele>2003.04</ele>
        <time>2023-03-07T09:30:32Z</time>
      </trkpt>
      <trkpt lat="44.35964" lon="7.19728">
        <ele>2003.52</ele>
        <time>2023-03-07T09:30:48Z</time>
      </trkpt>
      <trkpt lat="44.35963" lon="7.19727">
        <ele>2003.52</ele>
        <time>2023-03-07T09:30:53Z</time>
      </trkpt>
      <trkpt lat="44.35966" lon="7.19714">
        <ele>2004.49</ele>
        <time>2023-03-07T09:31:03Z</time>
      </trkpt>
      <trkpt lat="44.3597" lon="7.19699">
        <ele>2003.52</ele>
        <time>2023-03-07T09:31:17Z</time>
      </trkpt>
      <trkpt lat="44.35973" lon="7.19684">
        <ele>2003.04</ele>
        <time>2023-03-07T09:31:34Z</time>
      </trkpt>
      <trkpt lat="44.35976" lon="7.19675">
        <ele>2004.97</ele>
        <time>2023-03-07T09:31:48Z</time>
      </trkpt>
      <trkpt lat="44.35978" lon="7.19668">
        <ele>2006.41</ele>
        <time>2023-03-07T09:32:01Z</time>
      </trkpt>
      <trkpt lat="44.3598" lon="7.19662">
        <ele>2008.33</ele>
        <time>2023-03-07T09:32:14Z</time>
      </trkpt>
      <trkpt lat="44.35982" lon="7.19654">
        <ele>2010.25</ele>
        <time>2023-03-07T09:32:28Z</time>
      </trkpt>
      <trkpt lat="44.35985" lon="7.19644">
        <ele>2012.66</ele>
        <time>2023-03-07T09:32:43Z</time>
      </trkpt>
      <trkpt lat="44.35986" lon="7.19644">
        <ele>2012.66</ele>
        <time>2023-03-07T09:33:00Z</time>
      </trkpt>
      <trkpt lat="44.35987" lon="7.1964">
        <ele>2012.18</ele>
        <time>2023-03-07T09:33:24Z</time>
      </trkpt>
      <trkpt lat="44.35987" lon="7.19632">
        <ele>2013.62</ele>
        <time>2023-03-07T09:33:37Z</time>
      </trkpt>
      <trkpt lat="44.35985" lon="7.19631">
        <ele>2014.58</ele>
        <time>2023-03-07T09:33:51Z</time>
      </trkpt>
      <trkpt lat="44.35982" lon="7.19621">
        <ele>2015.54</ele>
        <time>2023-03-07T09:34:06Z</time>
      </trkpt>
      <trkpt lat="44.35978" lon="7.19611">
        <ele>2019.87</ele>
        <time>2023-03-07T09:34:20Z</time>
      </trkpt>
      <trkpt lat="44.35973" lon="7.19601">
        <ele>2021.31</ele>
        <time>2023-03-07T09:34:34Z</time>
      </trkpt>
      <trkpt lat="44.35971" lon="7.19592">
        <ele>2022.75</ele>
        <time>2023-03-07T09:34:51Z</time>
      </trkpt>
      <trkpt lat="44.35977" lon="7.19587">
        <ele>2024.67</ele>
        <time>2023-03-07T09:35:04Z</time>
      </trkpt>
      <trkpt lat="44.35983" lon="7.19584">
        <ele>2027.08</ele>
        <time>2023-03-07T09:35:19Z</time>
      </trkpt>
      <trkpt lat="44.35988" lon="7.19578">
        <ele>2028.52</ele>
        <time>2023-03-07T09:35:35Z</time>
      </trkpt>
      <trkpt lat="44.35995" lon="7.19573">
        <ele>2030.92</ele>
        <time>2023-03-07T09:35:50Z</time>
      </trkpt>
      <trkpt lat="44.35994" lon="7.19567">
        <ele>2030.92</ele>
        <time>2023-03-07T09:36:03Z</time>
      </trkpt>
      <trkpt lat="44.35987" lon="7.1956">
        <ele>2034.29</ele>
        <time>2023-03-07T09:36:17Z</time>
      </trkpt>
      <trkpt lat="44.35985" lon="7.19554">
        <ele>2035.25</ele>
        <time>2023-03-07T09:36:30Z</time>
      </trkpt>
      <trkpt lat="44.35981" lon="7.19548">
        <ele>2037.65</ele>
        <time>2023-03-07T09:36:46Z</time>
      </trkpt>
      <trkpt lat="44.35976" lon="7.19541">
        <ele>2039.57</ele>
        <time>2023-03-07T09:37:00Z</time>
      </trkpt>
      <trkpt lat="44.3598" lon="7.19538">
        <ele>2040.05</ele>
        <time>2023-03-07T09:37:13Z</time>
      </trkpt>
      <trkpt lat="44.35987" lon="7.19536">
        <ele>2041.98</ele>
        <time>2023-03-07T09:37:27Z</time>
      </trkpt>
      <trkpt lat="44.35994" lon="7.19532">
        <ele>2044.38</ele>
        <time>2023-03-07T09:37:43Z</time>
      </trkpt>
      <trkpt lat="44.36" lon="7.19528">
        <ele>2045.34</ele>
        <time>2023-03-07T09:37:58Z</time>
      </trkpt>
      <trkpt lat="44.36004" lon="7.19524">
        <ele>2046.78</ele>
        <time>2023-03-07T09:38:13Z</time>
      </trkpt>
      <trkpt lat="44.36005" lon="7.19519">
        <ele>2047.26</ele>
        <time>2023-03-07T09:38:26Z</time>
      </trkpt>
      <trkpt lat="44.35996" lon="7.19513">
        <ele>2050.63</ele>
        <time>2023-03-07T09:38:45Z</time>
      </trkpt>
      <trkpt lat="44.35992" lon="7.19508">
        <ele>2051.11</ele>
        <time>2023-03-07T09:39:07Z</time>
      </trkpt>
      <trkpt lat="44.35994" lon="7.19506">
        <ele>2052.07</ele>
        <time>2023-03-07T09:39:21Z</time>
      </trkpt>
      <trkpt lat="44.36003" lon="7.19501">
        <ele>2054.47</ele>
        <time>2023-03-07T09:39:34Z</time>
      </trkpt>
      <trkpt lat="44.36009" lon="7.19497">
        <ele>2055.92</ele>
        <time>2023-03-07T09:39:50Z</time>
      </trkpt>
      <trkpt lat="44.36015" lon="7.1949">
        <ele>2057.36</ele>
        <time>2023-03-07T09:40:05Z</time>
      </trkpt>
      <trkpt lat="44.36015" lon="7.19484">
        <ele>2057.84</ele>
        <time>2023-03-07T09:40:18Z</time>
      </trkpt>
      <trkpt lat="44.36008" lon="7.1948">
        <ele>2058.8</ele>
        <time>2023-03-07T09:40:33Z</time>
      </trkpt>
      <trkpt lat="44.36006" lon="7.19478">
        <ele>2062.17</ele>
        <time>2023-03-07T09:40:50Z</time>
      </trkpt>
      <trkpt lat="44.36001" lon="7.19472">
        <ele>2064.57</ele>
        <time>2023-03-07T09:41:05Z</time>
      </trkpt>
      <trkpt lat="44.35997" lon="7.19467">
        <ele>2066.01</ele>
        <time>2023-03-07T09:41:20Z</time>
      </trkpt>
      <trkpt lat="44.35992" lon="7.1946">
        <ele>2068.41</ele>
        <time>2023-03-07T09:41:33Z</time>
      </trkpt>
      <trkpt lat="44.35992" lon="7.1946">
        <ele>2069.86</ele>
        <time>2023-03-07T09:41:50Z</time>
      </trkpt>
      <trkpt lat="44.35993" lon="7.19457">
        <ele>2070.82</ele>
        <time>2023-03-07T09:42:05Z</time>
      </trkpt>
      <trkpt lat="44.36" lon="7.19456">
        <ele>2069.86</ele>
        <time>2023-03-07T09:42:18Z</time>
      </trkpt>
      <trkpt lat="44.36007" lon="7.19453">
        <ele>2071.78</ele>
        <time>2023-03-07T09:42:33Z</time>
      </trkpt>
      <trkpt lat="44.36014" lon="7.19446">
        <ele>2073.22</ele>
        <time>2023-03-07T09:42:47Z</time>
      </trkpt>
      <trkpt lat="44.36019" lon="7.19442">
        <ele>2075.14</ele>
        <time>2023-03-07T09:43:02Z</time>
      </trkpt>
      <trkpt lat="44.36023" lon="7.19435">
        <ele>2076.59</ele>
        <time>2023-03-07T09:43:15Z</time>
      </trkpt>
      <trkpt lat="44.36015" lon="7.1943">
        <ele>2075.14</ele>
        <time>2023-03-07T09:43:30Z</time>
      </trkpt>
      <trkpt lat="44.36008" lon="7.19423">
        <ele>2078.51</ele>
        <time>2023-03-07T09:43:47Z</time>
      </trkpt>
      <trkpt lat="44.36004" lon="7.19418">
        <ele>2079.47</ele>
        <time>2023-03-07T09:44:01Z</time>
      </trkpt>
      <trkpt lat="44.36" lon="7.19411">
        <ele>2080.91</ele>
        <time>2023-03-07T09:44:17Z</time>
      </trkpt>
      <trkpt lat="44.35997" lon="7.19405">
        <ele>2082.83</ele>
        <time>2023-03-07T09:44:32Z</time>
      </trkpt>
      <trkpt lat="44.35993" lon="7.19398">
        <ele>2084.28</ele>
        <time>2023-03-07T09:44:47Z</time>
      </trkpt>
      <trkpt lat="44.35994" lon="7.19392">
        <ele>2086.2</ele>
        <time>2023-03-07T09:45:02Z</time>
      </trkpt>
      <trkpt lat="44.35998" lon="7.19391">
        <ele>2088.12</ele>
        <time>2023-03-07T09:45:20Z</time>
      </trkpt>
      <trkpt lat="44.36003" lon="7.19387">
        <ele>2091</ele>
        <time>2023-03-07T09:45:35Z</time>
      </trkpt>
      <trkpt lat="44.36009" lon="7.19381">
        <ele>2093.89</ele>
        <time>2023-03-07T09:45:50Z</time>
      </trkpt>
      <trkpt lat="44.36015" lon="7.19376">
        <ele>2094.85</ele>
        <time>2023-03-07T09:46:05Z</time>
      </trkpt>
      <trkpt lat="44.3602" lon="7.19369">
        <ele>2094.37</ele>
        <time>2023-03-07T09:46:21Z</time>
      </trkpt>
      <trkpt lat="44.36023" lon="7.19364">
        <ele>2095.81</ele>
        <time>2023-03-07T09:46:35Z</time>
      </trkpt>
      <trkpt lat="44.36027" lon="7.19356">
        <ele>2097.73</ele>
        <time>2023-03-07T09:46:51Z</time>
      </trkpt>
      <trkpt lat="44.3603" lon="7.1935">
        <ele>2100.14</ele>
        <time>2023-03-07T09:47:06Z</time>
      </trkpt>
      <trkpt lat="44.36032" lon="7.19342">
        <ele>2101.1</ele>
        <time>2023-03-07T09:47:21Z</time>
      </trkpt>
      <trkpt lat="44.36034" lon="7.19337">
        <ele>2103.02</ele>
        <time>2023-03-07T09:47:36Z</time>
      </trkpt>
      <trkpt lat="44.36032" lon="7.19333">
        <ele>2103.02</ele>
        <time>2023-03-07T09:47:49Z</time>
      </trkpt>
      <trkpt lat="44.36026" lon="7.19329">
        <ele>2105.42</ele>
        <time>2023-03-07T09:48:04Z</time>
      </trkpt>
      <trkpt lat="44.36022" lon="7.19324">
        <ele>2105.91</ele>
        <time>2023-03-07T09:48:18Z</time>
      </trkpt>
      <trkpt lat="44.36021" lon="7.19321">
        <ele>2106.39</ele>
        <time>2023-03-07T09:48:32Z</time>
      </trkpt>
      <trkpt lat="44.36017" lon="7.19315">
        <ele>2107.35</ele>
        <time>2023-03-07T09:48:51Z</time>
      </trkpt>
      <trkpt lat="44.36013" lon="7.19309">
        <ele>2109.27</ele>
        <time>2023-03-07T09:49:05Z</time>
      </trkpt>
      <trkpt lat="44.3601" lon="7.19305">
        <ele>2110.23</ele>
        <time>2023-03-07T09:49:24Z</time>
      </trkpt>
      <trkpt lat="44.36008" lon="7.193">
        <ele>2109.75</ele>
        <time>2023-03-07T09:49:42Z</time>
      </trkpt>
      <trkpt lat="44.36004" lon="7.19295">
        <ele>2113.12</ele>
        <time>2023-03-07T09:49:56Z</time>
      </trkpt>
      <trkpt lat="44.36003" lon="7.19289">
        <ele>2113.6</ele>
        <time>2023-03-07T09:50:09Z</time>
      </trkpt>
      <trkpt lat="44.36005" lon="7.1929">
        <ele>2115.04</ele>
        <time>2023-03-07T09:50:36Z</time>
      </trkpt>
      <trkpt lat="44.36005" lon="7.19291">
        <ele>2113.6</ele>
        <time>2023-03-07T09:51:03Z</time>
      </trkpt>
      <trkpt lat="44.36005" lon="7.1929">
        <ele>2114.56</ele>
        <time>2023-03-07T09:51:29Z</time>
      </trkpt>
      <trkpt lat="44.3601" lon="7.19287">
        <ele>2115.52</ele>
        <time>2023-03-07T09:51:48Z</time>
      </trkpt>
      <trkpt lat="44.36017" lon="7.19281">
        <ele>2116.96</ele>
        <time>2023-03-07T09:52:02Z</time>
      </trkpt>
      <trkpt lat="44.36024" lon="7.19273">
        <ele>2120.81</ele>
        <time>2023-03-07T09:52:17Z</time>
      </trkpt>
      <trkpt lat="44.36028" lon="7.1927">
        <ele>2120.81</ele>
        <time>2023-03-07T09:52:33Z</time>
      </trkpt>
      <trkpt lat="44.3603" lon="7.19267">
        <ele>2120.32</ele>
        <time>2023-03-07T09:52:55Z</time>
      </trkpt>
      <trkpt lat="44.36037" lon="7.1926">
        <ele>2123.21</ele>
        <time>2023-03-07T09:53:10Z</time>
      </trkpt>
      <trkpt lat="44.36042" lon="7.19254">
        <ele>2123.21</ele>
        <time>2023-03-07T09:53:24Z</time>
      </trkpt>
      <trkpt lat="44.36046" lon="7.19246">
        <ele>2124.17</ele>
        <time>2023-03-07T09:53:40Z</time>
      </trkpt>
      <trkpt lat="44.36043" lon="7.19243">
        <ele>2124.17</ele>
        <time>2023-03-07T09:53:51Z</time>
      </trkpt>
      <trkpt lat="44.36038" lon="7.19241">
        <ele>2125.61</ele>
        <time>2023-03-07T09:54:03Z</time>
      </trkpt>
      <trkpt lat="44.36034" lon="7.19239">
        <ele>2127.05</ele>
        <time>2023-03-07T09:54:16Z</time>
      </trkpt>
      <trkpt lat="44.3603" lon="7.19237">
        <ele>2128.98</ele>
        <time>2023-03-07T09:54:31Z</time>
      </trkpt>
      <trkpt lat="44.36027" lon="7.19234">
        <ele>2129.94</ele>
        <time>2023-03-07T09:54:51Z</time>
      </trkpt>
      <trkpt lat="44.36021" lon="7.19228">
        <ele>2130.9</ele>
        <time>2023-03-07T09:55:06Z</time>
      </trkpt>
      <trkpt lat="44.36021" lon="7.19225">
        <ele>2133.3</ele>
        <time>2023-03-07T09:55:19Z</time>
      </trkpt>
      <trkpt lat="44.36025" lon="7.19222">
        <ele>2134.26</ele>
        <time>2023-03-07T09:55:31Z</time>
      </trkpt>
      <trkpt lat="44.36031" lon="7.19216">
        <ele>2134.26</ele>
        <time>2023-03-07T09:55:45Z</time>
      </trkpt>
      <trkpt lat="44.36036" lon="7.19209">
        <ele>2133.78</ele>
        <time>2023-03-07T09:56:00Z</time>
      </trkpt>
      <trkpt lat="44.36042" lon="7.19201">
        <ele>2135.23</ele>
        <time>2023-03-07T09:56:17Z</time>
      </trkpt>
      <trkpt lat="44.36047" lon="7.19195">
        <ele>2136.19</ele>
        <time>2023-03-07T09:56:32Z</time>
      </trkpt>
      <trkpt lat="44.36053" lon="7.19186">
        <ele>2137.15</ele>
        <time>2023-03-07T09:56:49Z</time>
      </trkpt>
      <trkpt lat="44.36057" lon="7.19182">
        <ele>2138.11</ele>
        <time>2023-03-07T09:57:04Z</time>
      </trkpt>
      <trkpt lat="44.36056" lon="7.19181">
        <ele>2139.07</ele>
        <time>2023-03-07T09:57:17Z</time>
      </trkpt>
      <trkpt lat="44.36051" lon="7.1918">
        <ele>2140.03</ele>
        <time>2023-03-07T09:57:30Z</time>
      </trkpt>
      <trkpt lat="44.36046" lon="7.19177">
        <ele>2142.92</ele>
        <time>2023-03-07T09:57:44Z</time>
      </trkpt>
      <trkpt lat="44.36043" lon="7.19175">
        <ele>2144.36</ele>
        <time>2023-03-07T09:58:00Z</time>
      </trkpt>
      <trkpt lat="44.36039" lon="7.1917">
        <ele>2144.36</ele>
        <time>2023-03-07T09:58:14Z</time>
      </trkpt>
      <trkpt lat="44.36034" lon="7.19165">
        <ele>2144.84</ele>
        <time>2023-03-07T09:58:27Z</time>
      </trkpt>
      <trkpt lat="44.36031" lon="7.19162">
        <ele>2146.28</ele>
        <time>2023-03-07T09:58:41Z</time>
      </trkpt>
      <trkpt lat="44.36028" lon="7.19158">
        <ele>2147.24</ele>
        <time>2023-03-07T09:59:01Z</time>
      </trkpt>
      <trkpt lat="44.3603" lon="7.19156">
        <ele>2149.16</ele>
        <time>2023-03-07T09:59:12Z</time>
      </trkpt>
      <trkpt lat="44.36037" lon="7.19151">
        <ele>2152.05</ele>
        <time>2023-03-07T09:59:28Z</time>
      </trkpt>
      <trkpt lat="44.36044" lon="7.19144">
        <ele>2154.45</ele>
        <time>2023-03-07T09:59:45Z</time>
      </trkpt>
      <trkpt lat="44.36048" lon="7.1914">
        <ele>2156.37</ele>
        <time>2023-03-07T10:00:01Z</time>
      </trkpt>
      <trkpt lat="44.36051" lon="7.19136">
        <ele>2155.89</ele>
        <time>2023-03-07T10:00:16Z</time>
      </trkpt>
      <trkpt lat="44.36052" lon="7.19134">
        <ele>2155.89</ele>
        <time>2023-03-07T10:00:19Z</time>
      </trkpt>
      <trkpt lat="44.36046" lon="7.19132">
        <ele>2155.89</ele>
        <time>2023-03-07T10:00:33Z</time>
      </trkpt>
      <trkpt lat="44.36042" lon="7.19128">
        <ele>2156.37</ele>
        <time>2023-03-07T10:00:47Z</time>
      </trkpt>
      <trkpt lat="44.36036" lon="7.19124">
        <ele>2158.78</ele>
        <time>2023-03-07T10:01:02Z</time>
      </trkpt>
      <trkpt lat="44.36033" lon="7.1912">
        <ele>2160.7</ele>
        <time>2023-03-07T10:01:20Z</time>
      </trkpt>
      <trkpt lat="44.36028" lon="7.19116">
        <ele>2163.1</ele>
        <time>2023-03-07T10:01:33Z</time>
      </trkpt>
      <trkpt lat="44.36026" lon="7.19114">
        <ele>2164.55</ele>
        <time>2023-03-07T10:01:39Z</time>
      </trkpt>
      <trkpt lat="44.36028" lon="7.19112">
        <ele>2165.03</ele>
        <time>2023-03-07T10:01:52Z</time>
      </trkpt>
      <trkpt lat="44.36033" lon="7.19109">
        <ele>2165.03</ele>
        <time>2023-03-07T10:02:07Z</time>
      </trkpt>
      <trkpt lat="44.36042" lon="7.19106">
        <ele>2165.51</ele>
        <time>2023-03-07T10:02:22Z</time>
      </trkpt>
      <trkpt lat="44.3605" lon="7.19101">
        <ele>2169.35</ele>
        <time>2023-03-07T10:02:42Z</time>
      </trkpt>
      <trkpt lat="44.36053" lon="7.19099">
        <ele>2169.83</ele>
        <time>2023-03-07T10:03:02Z</time>
      </trkpt>
      <trkpt lat="44.36054" lon="7.19096">
        <ele>2169.83</ele>
        <time>2023-03-07T10:03:15Z</time>
      </trkpt>
      <trkpt lat="44.36052" lon="7.19098">
        <ele>2170.79</ele>
        <time>2023-03-07T10:03:39Z</time>
      </trkpt>
      <trkpt lat="44.36051" lon="7.19097">
        <ele>2170.31</ele>
        <time>2023-03-07T10:04:11Z</time>
      </trkpt>
      <trkpt lat="44.36045" lon="7.1909">
        <ele>2170.79</ele>
        <time>2023-03-07T10:04:27Z</time>
      </trkpt>
      <trkpt lat="44.36039" lon="7.1908">
        <ele>2172.72</ele>
        <time>2023-03-07T10:04:45Z</time>
      </trkpt>
      <trkpt lat="44.36039" lon="7.19073">
        <ele>2178</ele>
        <time>2023-03-07T10:05:00Z</time>
      </trkpt>
      <trkpt lat="44.36045" lon="7.19071">
        <ele>2181.85</ele>
        <time>2023-03-07T10:05:15Z</time>
      </trkpt>
      <trkpt lat="44.36051" lon="7.19067">
        <ele>2183.77</ele>
        <time>2023-03-07T10:05:30Z</time>
      </trkpt>
      <trkpt lat="44.36048" lon="7.19057">
        <ele>2182.81</ele>
        <time>2023-03-07T10:05:45Z</time>
      </trkpt>
      <trkpt lat="44.36045" lon="7.1905">
        <ele>2184.73</ele>
        <time>2023-03-07T10:06:00Z</time>
      </trkpt>
      <trkpt lat="44.36047" lon="7.19046">
        <ele>2185.21</ele>
        <time>2023-03-07T10:06:12Z</time>
      </trkpt>
      <trkpt lat="44.36051" lon="7.19044">
        <ele>2186.66</ele>
        <time>2023-03-07T10:06:30Z</time>
      </trkpt>
      <trkpt lat="44.36057" lon="7.19041">
        <ele>2188.58</ele>
        <time>2023-03-07T10:06:45Z</time>
      </trkpt>
      <trkpt lat="44.36063" lon="7.19035">
        <ele>2190.5</ele>
        <time>2023-03-07T10:07:02Z</time>
      </trkpt>
      <trkpt lat="44.36068" lon="7.19031">
        <ele>2193.39</ele>
        <time>2023-03-07T10:07:16Z</time>
      </trkpt>
      <trkpt lat="44.36074" lon="7.19025">
        <ele>2195.31</ele>
        <time>2023-03-07T10:07:33Z</time>
      </trkpt>
      <trkpt lat="44.36072" lon="7.19017">
        <ele>2195.31</ele>
        <time>2023-03-07T10:07:46Z</time>
      </trkpt>
      <trkpt lat="44.36071" lon="7.19011">
        <ele>2195.79</ele>
        <time>2023-03-07T10:08:04Z</time>
      </trkpt>
      <trkpt lat="44.3607" lon="7.19005">
        <ele>2197.23</ele>
        <time>2023-03-07T10:08:16Z</time>
      </trkpt>
      <trkpt lat="44.36072" lon="7.18997">
        <ele>2198.19</ele>
        <time>2023-03-07T10:08:31Z</time>
      </trkpt>
      <trkpt lat="44.36077" lon="7.18989">
        <ele>2199.63</ele>
        <time>2023-03-07T10:08:46Z</time>
      </trkpt>
      <trkpt lat="44.36082" lon="7.1898">
        <ele>2203</ele>
        <time>2023-03-07T10:09:01Z</time>
      </trkpt>
      <trkpt lat="44.36084" lon="7.1897">
        <ele>2203.96</ele>
        <time>2023-03-07T10:09:12Z</time>
      </trkpt>
      <trkpt lat="44.36093" lon="7.18955">
        <ele>2205.4</ele>
        <time>2023-03-07T10:09:28Z</time>
      </trkpt>
      <trkpt lat="44.36103" lon="7.18938">
        <ele>2203.96</ele>
        <time>2023-03-07T10:09:43Z</time>
      </trkpt>
      <trkpt lat="44.36114" lon="7.18925">
        <ele>2202.52</ele>
        <time>2023-03-07T10:09:59Z</time>
      </trkpt>
      <trkpt lat="44.36116" lon="7.18924">
        <ele>2202.04</ele>
        <time>2023-03-07T10:10:01Z</time>
      </trkpt>
      <trkpt lat="44.36127" lon="7.18917">
        <ele>2203</ele>
        <time>2023-03-07T10:10:19Z</time>
      </trkpt>
      <trkpt lat="44.36139" lon="7.18909">
        <ele>2203.48</ele>
        <time>2023-03-07T10:10:38Z</time>
      </trkpt>
      <trkpt lat="44.36145" lon="7.18902">
        <ele>2203.48</ele>
        <time>2023-03-07T10:10:51Z</time>
      </trkpt>
      <trkpt lat="44.36147" lon="7.18891">
        <ele>2204.92</ele>
        <time>2023-03-07T10:11:09Z</time>
      </trkpt>
      <trkpt lat="44.36148" lon="7.18882">
        <ele>2206.84</ele>
        <time>2023-03-07T10:11:23Z</time>
      </trkpt>
      <trkpt lat="44.3615" lon="7.18871">
        <ele>2207.32</ele>
        <time>2023-03-07T10:11:39Z</time>
      </trkpt>
      <trkpt lat="44.36151" lon="7.1886">
        <ele>2209.25</ele>
        <time>2023-03-07T10:11:55Z</time>
      </trkpt>
      <trkpt lat="44.36153" lon="7.18864">
        <ele>2210.69</ele>
        <time>2023-03-07T10:12:07Z</time>
      </trkpt>
      <trkpt lat="44.36158" lon="7.18852">
        <ele>2215.01</ele>
        <time>2023-03-07T10:12:23Z</time>
      </trkpt>
      <trkpt lat="44.3616" lon="7.18835">
        <ele>2215.01</ele>
        <time>2023-03-07T10:12:40Z</time>
      </trkpt>
      <trkpt lat="44.36163" lon="7.18821">
        <ele>2215.98</ele>
        <time>2023-03-07T10:12:55Z</time>
      </trkpt>
      <trkpt lat="44.36166" lon="7.18807">
        <ele>2216.94</ele>
        <time>2023-03-07T10:13:10Z</time>
      </trkpt>
      <trkpt lat="44.36169" lon="7.18798">
        <ele>2216.46</ele>
        <time>2023-03-07T10:13:23Z</time>
      </trkpt>
      <trkpt lat="44.3617" lon="7.18796">
        <ele>2216.46</ele>
        <time>2023-03-07T10:13:39Z</time>
      </trkpt>
      <trkpt lat="44.3617" lon="7.18797">
        <ele>2217.42</ele>
        <time>2023-03-07T10:13:58Z</time>
      </trkpt>
      <trkpt lat="44.3617" lon="7.18803">
        <ele>2216.46</ele>
        <time>2023-03-07T10:14:14Z</time>
      </trkpt>
      <trkpt lat="44.36169" lon="7.18809">
        <ele>2215.01</ele>
        <time>2023-03-07T10:14:27Z</time>
      </trkpt>
      <trkpt lat="44.3617" lon="7.18809">
        <ele>2215.5</ele>
        <time>2023-03-07T10:14:44Z</time>
      </trkpt>
      <trkpt lat="44.3617" lon="7.18808">
        <ele>2216.94</ele>
        <time>2023-03-07T10:14:56Z</time>
      </trkpt>
      <trkpt lat="44.36167" lon="7.1882">
        <ele>2215.98</ele>
        <time>2023-03-07T10:15:09Z</time>
      </trkpt>
      <trkpt lat="44.36162" lon="7.18833">
        <ele>2215.98</ele>
        <time>2023-03-07T10:15:24Z</time>
      </trkpt>
      <trkpt lat="44.36159" lon="7.18849">
        <ele>2214.53</ele>
        <time>2023-03-07T10:15:39Z</time>
      </trkpt>
      <trkpt lat="44.36155" lon="7.18861">
        <ele>2212.13</ele>
        <time>2023-03-07T10:15:54Z</time>
      </trkpt>
      <trkpt lat="44.36152" lon="7.18868">
        <ele>2211.17</ele>
        <time>2023-03-07T10:16:08Z</time>
      </trkpt>
      <trkpt lat="44.36151" lon="7.18871">
        <ele>2211.17</ele>
        <time>2023-03-07T10:16:18Z</time>
      </trkpt>
      <trkpt lat="44.36152" lon="7.18873">
        <ele>2210.21</ele>
        <time>2023-03-07T10:16:29Z</time>
      </trkpt>
      <trkpt lat="44.36152" lon="7.18879">
        <ele>2209.25</ele>
        <time>2023-03-07T10:16:41Z</time>
      </trkpt>
      <trkpt lat="44.36153" lon="7.18883">
        <ele>2208.77</ele>
        <time>2023-03-07T10:16:51Z</time>
      </trkpt>
      <trkpt lat="44.36153" lon="7.18887">
        <ele>2207.81</ele>
        <time>2023-03-07T10:16:57Z</time>
      </trkpt>
      <trkpt lat="44.36148" lon="7.18895">
        <ele>2205.88</ele>
        <time>2023-03-07T10:17:11Z</time>
      </trkpt>
      <trkpt lat="44.36147" lon="7.18895">
        <ele>2205.88</ele>
        <time>2023-03-07T10:17:13Z</time>
      </trkpt>
      <trkpt lat="44.36146" lon="7.18895">
        <ele>2204.92</ele>
        <time>2023-03-07T10:17:24Z</time>
      </trkpt>
      <trkpt lat="44.36146" lon="7.18894">
        <ele>2204.92</ele>
        <time>2023-03-07T10:17:43Z</time>
      </trkpt>
      <trkpt lat="44.36146" lon="7.18895">
        <ele>2203.48</ele>
        <time>2023-03-07T10:18:07Z</time>
      </trkpt>
      <trkpt lat="44.36148" lon="7.18894">
        <ele>2203.48</ele>
        <time>2023-03-07T10:18:22Z</time>
      </trkpt>
      <trkpt lat="44.36147" lon="7.18893">
        <ele>2203</ele>
        <time>2023-03-07T10:18:48Z</time>
      </trkpt>
      <trkpt lat="44.36149" lon="7.18892">
        <ele>2205.4</ele>
        <time>2023-03-07T10:19:14Z</time>
      </trkpt>
      <trkpt lat="44.3615" lon="7.18891">
        <ele>2203.96</ele>
        <time>2023-03-07T10:19:29Z</time>
      </trkpt>
      <trkpt lat="44.3615" lon="7.1889">
        <ele>2204.92</ele>
        <time>2023-03-07T10:19:58Z</time>
      </trkpt>
      <trkpt lat="44.36151" lon="7.18891">
        <ele>2207.32</ele>
        <time>2023-03-07T10:20:39Z</time>
      </trkpt>
      <trkpt lat="44.36151" lon="7.18892">
        <ele>2205.4</ele>
        <time>2023-03-07T10:21:17Z</time>
      </trkpt>
      <trkpt lat="44.36152" lon="7.18894">
        <ele>2205.88</ele>
        <time>2023-03-07T10:21:44Z</time>
      </trkpt>
      <trkpt lat="44.36151" lon="7.18893">
        <ele>2206.36</ele>
        <time>2023-03-07T10:22:09Z</time>
      </trkpt>
      <trkpt lat="44.36151" lon="7.18893">
        <ele>2206.36</ele>
        <time>2023-03-07T10:22:40Z</time>
      </trkpt>
      <trkpt lat="44.3615" lon="7.18892">
        <ele>2204.44</ele>
        <time>2023-03-07T10:23:10Z</time>
      </trkpt>
      <trkpt lat="44.3615" lon="7.18891">
        <ele>2204.44</ele>
        <time>2023-03-07T10:23:43Z</time>
      </trkpt>
      <trkpt lat="44.3615" lon="7.18892">
        <ele>2204.92</ele>
        <time>2023-03-07T10:24:17Z</time>
      </trkpt>
      <trkpt lat="44.3615" lon="7.18892">
        <ele>2205.88</ele>
        <time>2023-03-07T10:24:54Z</time>
      </trkpt>
      <trkpt lat="44.36149" lon="7.18892">
        <ele>2206.36</ele>
        <time>2023-03-07T10:25:29Z</time>
      </trkpt>
      <trkpt lat="44.3615" lon="7.18892">
        <ele>2205.88</ele>
        <time>2023-03-07T10:26:02Z</time>
      </trkpt>
      <trkpt lat="44.3615" lon="7.18895">
        <ele>2204.92</ele>
        <time>2023-03-07T10:26:40Z</time>
      </trkpt>
      <trkpt lat="44.3615" lon="7.18892">
        <ele>2203</ele>
        <time>2023-03-07T10:27:12Z</time>
      </trkpt>
      <trkpt lat="44.36148" lon="7.18894">
        <ele>2203.48</ele>
        <time>2023-03-07T10:27:50Z</time>
      </trkpt>
      <trkpt lat="44.36148" lon="7.18893">
        <ele>2202.52</ele>
        <time>2023-03-07T10:28:25Z</time>
      </trkpt>
      <trkpt lat="44.36147" lon="7.18894">
        <ele>2202.52</ele>
        <time>2023-03-07T10:29:08Z</time>
      </trkpt>
      <trkpt lat="44.36147" lon="7.18897">
        <ele>2202.04</ele>
        <time>2023-03-07T10:29:50Z</time>
      </trkpt>
      <trkpt lat="44.36148" lon="7.18895">
        <ele>2202.52</ele>
        <time>2023-03-07T10:30:15Z</time>
      </trkpt>
      <trkpt lat="44.36147" lon="7.18896">
        <ele>2202.52</ele>
        <time>2023-03-07T10:30:44Z</time>
      </trkpt>
      <trkpt lat="44.36148" lon="7.18897">
        <ele>2204.44</ele>
        <time>2023-03-07T10:31:21Z</time>
      </trkpt>
      <trkpt lat="44.36149" lon="7.18898">
        <ele>2205.88</ele>
        <time>2023-03-07T10:31:56Z</time>
      </trkpt>
      <trkpt lat="44.36149" lon="7.18895">
        <ele>2204.92</ele>
        <time>2023-03-07T10:32:25Z</time>
      </trkpt>
      <trkpt lat="44.36146" lon="7.18892">
        <ele>2204.92</ele>
        <time>2023-03-07T10:32:41Z</time>
      </trkpt>
      <trkpt lat="44.36146" lon="7.18894">
        <ele>2204.92</ele>
        <time>2023-03-07T10:33:01Z</time>
      </trkpt>
      <trkpt lat="44.36146" lon="7.18895">
        <ele>2204.44</ele>
        <time>2023-03-07T10:33:21Z</time>
      </trkpt>
      <trkpt lat="44.36146" lon="7.18896">
        <ele>2204.44</ele>
        <time>2023-03-07T10:33:33Z</time>
      </trkpt>
      <trkpt lat="44.36146" lon="7.18896">
        <ele>2204.92</ele>
        <time>2023-03-07T10:34:01Z</time>
      </trkpt>
      <trkpt lat="44.36146" lon="7.18896">
        <ele>2204.92</ele>
        <time>2023-03-07T10:34:13Z</time>
      </trkpt>
      <trkpt lat="44.36148" lon="7.18899">
        <ele>2204.92</ele>
        <time>2023-03-07T10:34:29Z</time>
      </trkpt>
      <trkpt lat="44.36148" lon="7.189">
        <ele>2204.44</ele>
        <time>2023-03-07T10:34:32Z</time>
      </trkpt>
      <trkpt lat="44.36147" lon="7.18905">
        <ele>2203.96</ele>
        <time>2023-03-07T10:34:35Z</time>
      </trkpt>
      <trkpt lat="44.36136" lon="7.18919">
        <ele>2202.04</ele>
        <time>2023-03-07T10:34:40Z</time>
      </trkpt>
      <trkpt lat="44.36109" lon="7.18985">
        <ele>2197.71</ele>
        <time>2023-03-07T10:34:53Z</time>
      </trkpt>
      <trkpt lat="44.36097" lon="7.19021">
        <ele>2194.83</ele>
        <time>2023-03-07T10:35:05Z</time>
      </trkpt>
      <trkpt lat="44.36086" lon="7.19039">
        <ele>2190.98</ele>
        <time>2023-03-07T10:35:18Z</time>
      </trkpt>
      <trkpt lat="44.3607" lon="7.19052">
        <ele>2187.14</ele>
        <time>2023-03-07T10:35:28Z</time>
      </trkpt>
      <trkpt lat="44.3607" lon="7.19054">
        <ele>2187.62</ele>
        <time>2023-03-07T10:35:44Z</time>
      </trkpt>
      <trkpt lat="44.36059" lon="7.19065">
        <ele>2183.77</ele>
        <time>2023-03-07T10:35:50Z</time>
      </trkpt>
      <trkpt lat="44.36038" lon="7.19072">
        <ele>2179.93</ele>
        <time>2023-03-07T10:36:00Z</time>
      </trkpt>
      <trkpt lat="44.36037" lon="7.19072">
        <ele>2179.93</ele>
        <time>2023-03-07T10:36:01Z</time>
      </trkpt>
      <trkpt lat="44.36039" lon="7.19084">
        <ele>2177.52</ele>
        <time>2023-03-07T10:36:06Z</time>
      </trkpt>
      <trkpt lat="44.36046" lon="7.19092">
        <ele>2174.64</ele>
        <time>2023-03-07T10:36:11Z</time>
      </trkpt>
      <trkpt lat="44.3604" lon="7.19107">
        <ele>2169.83</ele>
        <time>2023-03-07T10:36:17Z</time>
      </trkpt>
      <trkpt lat="44.36043" lon="7.19108">
        <ele>2166.95</ele>
        <time>2023-03-07T10:36:23Z</time>
      </trkpt>
      <trkpt lat="44.36043" lon="7.19106">
        <ele>2167.91</ele>
        <time>2023-03-07T10:36:28Z</time>
      </trkpt>
      <trkpt lat="44.36037" lon="7.19124">
        <ele>2164.55</ele>
        <time>2023-03-07T10:36:35Z</time>
      </trkpt>
      <trkpt lat="44.3604" lon="7.19126">
        <ele>2163.58</ele>
        <time>2023-03-07T10:36:36Z</time>
      </trkpt>
      <trkpt lat="44.36046" lon="7.19127">
        <ele>2162.62</ele>
        <time>2023-03-07T10:36:38Z</time>
      </trkpt>
      <trkpt lat="44.3605" lon="7.19127">
        <ele>2161.66</ele>
        <time>2023-03-07T10:36:40Z</time>
      </trkpt>
      <trkpt lat="44.36047" lon="7.1915">
        <ele>2157.34</ele>
        <time>2023-03-07T10:36:46Z</time>
      </trkpt>
      <trkpt lat="44.36043" lon="7.1917">
        <ele>2151.57</ele>
        <time>2023-03-07T10:36:52Z</time>
      </trkpt>
      <trkpt lat="44.36048" lon="7.19173">
        <ele>2147.24</ele>
        <time>2023-03-07T10:36:57Z</time>
      </trkpt>
      <trkpt lat="44.36048" lon="7.19173">
        <ele>2146.76</ele>
        <time>2023-03-07T10:37:15Z</time>
      </trkpt>
      <trkpt lat="44.36047" lon="7.19182">
        <ele>2145.8</ele>
        <time>2023-03-07T10:37:19Z</time>
      </trkpt>
      <trkpt lat="44.36042" lon="7.19188">
        <ele>2145.32</ele>
        <time>2023-03-07T10:37:21Z</time>
      </trkpt>
      <trkpt lat="44.36036" lon="7.19214">
        <ele>2140.51</ele>
        <time>2023-03-07T10:37:28Z</time>
      </trkpt>
      <trkpt lat="44.3604" lon="7.19214">
        <ele>2139.55</ele>
        <time>2023-03-07T10:37:29Z</time>
      </trkpt>
      <trkpt lat="44.36056" lon="7.19211">
        <ele>2136.19</ele>
        <time>2023-03-07T10:37:35Z</time>
      </trkpt>
      <trkpt lat="44.36059" lon="7.19232">
        <ele>2131.86</ele>
        <time>2023-03-07T10:37:41Z</time>
      </trkpt>
      <trkpt lat="44.36057" lon="7.19254">
        <ele>2127.05</ele>
        <time>2023-03-07T10:37:46Z</time>
      </trkpt>
      <trkpt lat="44.36055" lon="7.19276">
        <ele>2121.29</ele>
        <time>2023-03-07T10:37:51Z</time>
      </trkpt>
      <trkpt lat="44.36049" lon="7.19283">
        <ele>2119.84</ele>
        <time>2023-03-07T10:37:53Z</time>
      </trkpt>
      <trkpt lat="44.36047" lon="7.19291">
        <ele>2118.88</ele>
        <time>2023-03-07T10:37:55Z</time>
      </trkpt>
      <trkpt lat="44.36051" lon="7.19289">
        <ele>2118.4</ele>
        <time>2023-03-07T10:38:05Z</time>
      </trkpt>
      <trkpt lat="44.36052" lon="7.19287">
        <ele>2119.36</ele>
        <time>2023-03-07T10:38:29Z</time>
      </trkpt>
      <trkpt lat="44.36051" lon="7.19284">
        <ele>2110.71</ele>
        <time>2023-03-07T10:38:58Z</time>
      </trkpt>
      <trkpt lat="44.36051" lon="7.19283">
        <ele>2109.75</ele>
        <time>2023-03-07T10:39:16Z</time>
      </trkpt>
      <trkpt lat="44.36051" lon="7.19284">
        <ele>2109.75</ele>
        <time>2023-03-07T10:39:19Z</time>
      </trkpt>
      <trkpt lat="44.36053" lon="7.19313">
        <ele>2105.91</ele>
        <time>2023-03-07T10:39:25Z</time>
      </trkpt>
      <trkpt lat="44.36057" lon="7.19326">
        <ele>2102.54</ele>
        <time>2023-03-07T10:39:28Z</time>
      </trkpt>
      <trkpt lat="44.36062" lon="7.19358">
        <ele>2093.89</ele>
        <time>2023-03-07T10:39:35Z</time>
      </trkpt>
      <trkpt lat="44.36069" lon="7.1937">
        <ele>2087.16</ele>
        <time>2023-03-07T10:39:40Z</time>
      </trkpt>
      <trkpt lat="44.36068" lon="7.1937">
        <ele>2084.76</ele>
        <time>2023-03-07T10:39:57Z</time>
      </trkpt>
      <trkpt lat="44.36068" lon="7.19373">
        <ele>2085.72</ele>
        <time>2023-03-07T10:40:07Z</time>
      </trkpt>
      <trkpt lat="44.36074" lon="7.19377">
        <ele>2084.28</ele>
        <time>2023-03-07T10:40:10Z</time>
      </trkpt>
      <trkpt lat="44.36087" lon="7.19401">
        <ele>2077.07</ele>
        <time>2023-03-07T10:40:16Z</time>
      </trkpt>
      <trkpt lat="44.3609" lon="7.19426">
        <ele>2070.82</ele>
        <time>2023-03-07T10:40:20Z</time>
      </trkpt>
      <trkpt lat="44.36086" lon="7.19439">
        <ele>2067.93</ele>
        <time>2023-03-07T10:40:22Z</time>
      </trkpt>
      <trkpt lat="44.36074" lon="7.19469">
        <ele>2059.76</ele>
        <time>2023-03-07T10:40:30Z</time>
      </trkpt>
      <trkpt lat="44.36074" lon="7.19469">
        <ele>2058.32</ele>
        <time>2023-03-07T10:40:46Z</time>
      </trkpt>
      <trkpt lat="44.36074" lon="7.19469">
        <ele>2056.88</ele>
        <time>2023-03-07T10:41:05Z</time>
      </trkpt>
      <trkpt lat="44.3607" lon="7.19498">
        <ele>2052.55</ele>
        <time>2023-03-07T10:41:12Z</time>
      </trkpt>
      <trkpt lat="44.36065" lon="7.19508">
        <ele>2049.67</ele>
        <time>2023-03-07T10:41:14Z</time>
      </trkpt>
      <trkpt lat="44.36054" lon="7.19527">
        <ele>2042.94</ele>
        <time>2023-03-07T10:41:19Z</time>
      </trkpt>
      <trkpt lat="44.36049" lon="7.19541">
        <ele>2039.57</ele>
        <time>2023-03-07T10:41:23Z</time>
      </trkpt>
      <trkpt lat="44.36013" lon="7.19591">
        <ele>2029</ele>
        <time>2023-03-07T10:41:35Z</time>
      </trkpt>
      <trkpt lat="44.36" lon="7.19602">
        <ele>2026.6</ele>
        <time>2023-03-07T10:41:43Z</time>
      </trkpt>
      <trkpt lat="44.36001" lon="7.19603">
        <ele>2026.6</ele>
        <time>2023-03-07T10:41:46Z</time>
      </trkpt>
      <trkpt lat="44.36011" lon="7.19619">
        <ele>2022.27</ele>
        <time>2023-03-07T10:41:52Z</time>
      </trkpt>
      <trkpt lat="44.36012" lon="7.19642">
        <ele>2016.5</ele>
        <time>2023-03-07T10:41:57Z</time>
      </trkpt>
      <trkpt lat="44.36003" lon="7.19662">
        <ele>2011.7</ele>
        <time>2023-03-07T10:42:02Z</time>
      </trkpt>
      <trkpt lat="44.35996" lon="7.19678">
        <ele>2008.81</ele>
        <time>2023-03-07T10:42:13Z</time>
      </trkpt>
      <trkpt lat="44.35996" lon="7.19681">
        <ele>2007.85</ele>
        <time>2023-03-07T10:42:34Z</time>
      </trkpt>
      <trkpt lat="44.35997" lon="7.19682">
        <ele>2007.37</ele>
        <time>2023-03-07T10:42:47Z</time>
      </trkpt>
      <trkpt lat="44.35994" lon="7.19691">
        <ele>2006.89</ele>
        <time>2023-03-07T10:42:51Z</time>
      </trkpt>
      <trkpt lat="44.35991" lon="7.19701">
        <ele>2004.49</ele>
        <time>2023-03-07T10:42:55Z</time>
      </trkpt>
      <trkpt lat="44.36" lon="7.19699">
        <ele>1998.24</ele>
        <time>2023-03-07T10:43:01Z</time>
      </trkpt>
      <trkpt lat="44.35998" lon="7.19722">
        <ele>1994.87</ele>
        <time>2023-03-07T10:43:07Z</time>
      </trkpt>
      <trkpt lat="44.36005" lon="7.19722">
        <ele>1989.59</ele>
        <time>2023-03-07T10:43:12Z</time>
      </trkpt>
      <trkpt lat="44.36003" lon="7.19718">
        <ele>1983.82</ele>
        <time>2023-03-07T10:43:25Z</time>
      </trkpt>
      <trkpt lat="44.36011" lon="7.19738">
        <ele>1979.49</ele>
        <time>2023-03-07T10:43:31Z</time>
      </trkpt>
      <trkpt lat="44.36026" lon="7.19743">
        <ele>1972.28</ele>
        <time>2023-03-07T10:43:36Z</time>
      </trkpt>
      <trkpt lat="44.3603" lon="7.19749">
        <ele>1966.03</ele>
        <time>2023-03-07T10:43:41Z</time>
      </trkpt>
      <trkpt lat="44.36028" lon="7.19751">
        <ele>1960.27</ele>
        <time>2023-03-07T10:43:58Z</time>
      </trkpt>
      <trkpt lat="44.36026" lon="7.19771">
        <ele>1961.23</ele>
        <time>2023-03-07T10:44:15Z</time>
      </trkpt>
      <trkpt lat="44.3602" lon="7.19834">
        <ele>1953.54</ele>
        <time>2023-03-07T10:44:28Z</time>
      </trkpt>
      <trkpt lat="44.36019" lon="7.1984">
        <ele>1948.73</ele>
        <time>2023-03-07T10:44:36Z</time>
      </trkpt>
      <trkpt lat="44.36028" lon="7.19844">
        <ele>1941.04</ele>
        <time>2023-03-07T10:44:42Z</time>
      </trkpt>
      <trkpt lat="44.36035" lon="7.19856">
        <ele>1931.91</ele>
        <time>2023-03-07T10:44:47Z</time>
      </trkpt>
      <trkpt lat="44.36039" lon="7.19846">
        <ele>1926.14</ele>
        <time>2023-03-07T10:44:50Z</time>
      </trkpt>
      <trkpt lat="44.36044" lon="7.19857">
        <ele>1919.89</ele>
        <time>2023-03-07T10:44:56Z</time>
      </trkpt>
      <trkpt lat="44.36041" lon="7.19857">
        <ele>1918.45</ele>
        <time>2023-03-07T10:45:12Z</time>
      </trkpt>
      <trkpt lat="44.36042" lon="7.19859">
        <ele>1921.81</ele>
        <time>2023-03-07T10:45:42Z</time>
      </trkpt>
      <trkpt lat="44.36043" lon="7.19857">
        <ele>1920.85</ele>
        <time>2023-03-07T10:46:01Z</time>
      </trkpt>
      <trkpt lat="44.36046" lon="7.19864">
        <ele>1921.33</ele>
        <time>2023-03-07T10:46:20Z</time>
      </trkpt>
      <trkpt lat="44.36046" lon="7.19876">
        <ele>1919.41</ele>
        <time>2023-03-07T10:46:24Z</time>
      </trkpt>
      <trkpt lat="44.36048" lon="7.19905">
        <ele>1912.68</ele>
        <time>2023-03-07T10:46:32Z</time>
      </trkpt>
      <trkpt lat="44.3605" lon="7.19922">
        <ele>1906.91</ele>
        <time>2023-03-07T10:46:37Z</time>
      </trkpt>
      <trkpt lat="44.3605" lon="7.19972">
        <ele>1896.34</ele>
        <time>2023-03-07T10:46:48Z</time>
      </trkpt>
      <trkpt lat="44.36049" lon="7.19991">
        <ele>1891.05</ele>
        <time>2023-03-07T10:46:58Z</time>
      </trkpt>
      <trkpt lat="44.36049" lon="7.19992">
        <ele>1892.01</ele>
        <time>2023-03-07T10:47:20Z</time>
      </trkpt>
      <trkpt lat="44.3605" lon="7.19991">
        <ele>1892.49</ele>
        <time>2023-03-07T10:47:21Z</time>
      </trkpt>
      <trkpt lat="44.36059" lon="7.20001">
        <ele>1887.69</ele>
        <time>2023-03-07T10:47:27Z</time>
      </trkpt>
      <trkpt lat="44.36069" lon="7.20019">
        <ele>1880</ele>
        <time>2023-03-07T10:47:32Z</time>
      </trkpt>
      <trkpt lat="44.36077" lon="7.20036">
        <ele>1871.82</ele>
        <time>2023-03-07T10:47:37Z</time>
      </trkpt>
      <trkpt lat="44.36083" lon="7.20037">
        <ele>1866.06</ele>
        <time>2023-03-07T10:47:41Z</time>
      </trkpt>
      <trkpt lat="44.3608" lon="7.20058">
        <ele>1860.29</ele>
        <time>2023-03-07T10:47:46Z</time>
      </trkpt>
      <trkpt lat="44.36067" lon="7.20086">
        <ele>1854.52</ele>
        <time>2023-03-07T10:47:56Z</time>
      </trkpt>
      <trkpt lat="44.36066" lon="7.20091">
        <ele>1855.96</ele>
        <time>2023-03-07T10:48:12Z</time>
      </trkpt>
      <trkpt lat="44.36051" lon="7.20119">
        <ele>1853.56</ele>
        <time>2023-03-07T10:48:23Z</time>
      </trkpt>
      <trkpt lat="44.36019" lon="7.20162">
        <ele>1847.79</ele>
        <time>2023-03-07T10:48:36Z</time>
      </trkpt>
      <trkpt lat="44.36006" lon="7.20176">
        <ele>1845.39</ele>
        <time>2023-03-07T10:48:45Z</time>
      </trkpt>
      <trkpt lat="44.36" lon="7.20185">
        <ele>1843.95</ele>
        <time>2023-03-07T10:48:47Z</time>
      </trkpt>
      <trkpt lat="44.35976" lon="7.20231">
        <ele>1837.7</ele>
        <time>2023-03-07T10:48:58Z</time>
      </trkpt>
      <trkpt lat="44.35965" lon="7.20264">
        <ele>1833.37</ele>
        <time>2023-03-07T10:49:08Z</time>
      </trkpt>
      <trkpt lat="44.35962" lon="7.20272">
        <ele>1830.01</ele>
        <time>2023-03-07T10:49:28Z</time>
      </trkpt>
      <trkpt lat="44.35959" lon="7.20286">
        <ele>1829.05</ele>
        <time>2023-03-07T10:49:40Z</time>
      </trkpt>
      <trkpt lat="44.3596" lon="7.20294">
        <ele>1830.49</ele>
        <time>2023-03-07T10:49:55Z</time>
      </trkpt>
      <trkpt lat="44.35961" lon="7.20305">
        <ele>1830.97</ele>
        <time>2023-03-07T10:50:01Z</time>
      </trkpt>
      <trkpt lat="44.35973" lon="7.20321">
        <ele>1822.32</ele>
        <time>2023-03-07T10:50:07Z</time>
      </trkpt>
      <trkpt lat="44.35981" lon="7.2033">
        <ele>1817.03</ele>
        <time>2023-03-07T10:50:10Z</time>
      </trkpt>
      <trkpt lat="44.3599" lon="7.20333">
        <ele>1813.18</ele>
        <time>2023-03-07T10:50:12Z</time>
      </trkpt>
      <trkpt lat="44.35997" lon="7.20342">
        <ele>1799.24</ele>
        <time>2023-03-07T10:50:19Z</time>
      </trkpt>
      <trkpt lat="44.35992" lon="7.20348">
        <ele>1791.07</ele>
        <time>2023-03-07T10:50:26Z</time>
      </trkpt>
      <trkpt lat="44.3599" lon="7.2035">
        <ele>1789.15</ele>
        <time>2023-03-07T10:50:47Z</time>
      </trkpt>
      <trkpt lat="44.35991" lon="7.20358">
        <ele>1790.11</ele>
        <time>2023-03-07T10:50:55Z</time>
      </trkpt>
      <trkpt lat="44.35993" lon="7.20354">
        <ele>1786.75</ele>
        <time>2023-03-07T10:51:03Z</time>
      </trkpt>
      <trkpt lat="44.35993" lon="7.20352">
        <ele>1785.79</ele>
        <time>2023-03-07T10:51:25Z</time>
      </trkpt>
      <trkpt lat="44.35997" lon="7.20355">
        <ele>1785.79</ele>
        <time>2023-03-07T10:51:42Z</time>
      </trkpt>
      <trkpt lat="44.35996" lon="7.20368">
        <ele>1783.38</ele>
        <time>2023-03-07T10:51:45Z</time>
      </trkpt>
      <trkpt lat="44.36004" lon="7.20386">
        <ele>1776.65</ele>
        <time>2023-03-07T10:51:51Z</time>
      </trkpt>
      <trkpt lat="44.3601" lon="7.2039">
        <ele>1772.81</ele>
        <time>2023-03-07T10:51:55Z</time>
      </trkpt>
      <trkpt lat="44.3601" lon="7.20385">
        <ele>1769.92</ele>
        <time>2023-03-07T10:52:12Z</time>
      </trkpt>
      <trkpt lat="44.36011" lon="7.20385">
        <ele>1769.92</ele>
        <time>2023-03-07T10:52:40Z</time>
      </trkpt>
      <trkpt lat="44.36014" lon="7.20387">
        <ele>1771.37</ele>
        <time>2023-03-07T10:53:10Z</time>
      </trkpt>
      <trkpt lat="44.36013" lon="7.20387">
        <ele>1770.89</ele>
        <time>2023-03-07T10:53:20Z</time>
      </trkpt>
      <trkpt lat="44.36023" lon="7.20403">
        <ele>1766.08</ele>
        <time>2023-03-07T10:53:26Z</time>
      </trkpt>
      <trkpt lat="44.36033" lon="7.20424">
        <ele>1759.35</ele>
        <time>2023-03-07T10:53:31Z</time>
      </trkpt>
      <trkpt lat="44.36042" lon="7.20445">
        <ele>1752.14</ele>
        <time>2023-03-07T10:53:35Z</time>
      </trkpt>
      <trkpt lat="44.36063" lon="7.2048">
        <ele>1739.16</ele>
        <time>2023-03-07T10:53:41Z</time>
      </trkpt>
      <trkpt lat="44.3607" lon="7.20496">
        <ele>1730.03</ele>
        <time>2023-03-07T10:53:45Z</time>
      </trkpt>
      <trkpt lat="44.36074" lon="7.20484">
        <ele>1721.86</ele>
        <time>2023-03-07T10:53:52Z</time>
      </trkpt>
      <trkpt lat="44.3607" lon="7.20485">
        <ele>1719.46</ele>
        <time>2023-03-07T10:54:06Z</time>
      </trkpt>
      <trkpt lat="44.36062" lon="7.20482">
        <ele>1722.34</ele>
        <time>2023-03-07T10:54:40Z</time>
      </trkpt>
      <trkpt lat="44.36067" lon="7.20487">
        <ele>1721.86</ele>
        <time>2023-03-07T10:55:02Z</time>
      </trkpt>
      <trkpt lat="44.36068" lon="7.20488">
        <ele>1723.78</ele>
        <time>2023-03-07T10:55:24Z</time>
      </trkpt>
      <trkpt lat="44.36069" lon="7.20489">
        <ele>1724.74</ele>
        <time>2023-03-07T10:55:45Z</time>
      </trkpt>
      <trkpt lat="44.3607" lon="7.20488">
        <ele>1725.22</ele>
        <time>2023-03-07T10:56:05Z</time>
      </trkpt>
      <trkpt lat="44.3607" lon="7.2049">
        <ele>1725.22</ele>
        <time>2023-03-07T10:56:07Z</time>
      </trkpt>
      <trkpt lat="44.36068" lon="7.20504">
        <ele>1725.22</ele>
        <time>2023-03-07T10:56:11Z</time>
      </trkpt>
      <trkpt lat="44.36064" lon="7.20515">
        <ele>1723.78</ele>
        <time>2023-03-07T10:56:17Z</time>
      </trkpt>
      <trkpt lat="44.36073" lon="7.20529">
        <ele>1718.49</ele>
        <time>2023-03-07T10:56:23Z</time>
      </trkpt>
      <trkpt lat="44.36074" lon="7.20534">
        <ele>1717.05</ele>
        <time>2023-03-07T10:56:24Z</time>
      </trkpt>
      <trkpt lat="44.36077" lon="7.2057">
        <ele>1704.55</ele>
        <time>2023-03-07T10:56:31Z</time>
      </trkpt>
      <trkpt lat="44.36078" lon="7.20585">
        <ele>1698.31</ele>
        <time>2023-03-07T10:56:34Z</time>
      </trkpt>
      <trkpt lat="44.36078" lon="7.2061">
        <ele>1688.21</ele>
        <time>2023-03-07T10:56:39Z</time>
      </trkpt>
      <trkpt lat="44.36085" lon="7.20628">
        <ele>1679.08</ele>
        <time>2023-03-07T10:56:45Z</time>
      </trkpt>
      <trkpt lat="44.36081" lon="7.20653">
        <ele>1673.79</ele>
        <time>2023-03-07T10:56:49Z</time>
      </trkpt>
      <trkpt lat="44.36093" lon="7.20672">
        <ele>1665.62</ele>
        <time>2023-03-07T10:56:55Z</time>
      </trkpt>
      <trkpt lat="44.36097" lon="7.20682">
        <ele>1670.43</ele>
        <time>2023-03-07T10:57:05Z</time>
      </trkpt>
      <trkpt lat="44.36096" lon="7.20682">
        <ele>1671.87</ele>
        <time>2023-03-07T10:57:28Z</time>
      </trkpt>
      <trkpt lat="44.36095" lon="7.2068">
        <ele>1674.75</ele>
        <time>2023-03-07T10:57:45Z</time>
      </trkpt>
      <trkpt lat="44.36088" lon="7.20722">
        <ele>1671.39</ele>
        <time>2023-03-07T10:57:53Z</time>
      </trkpt>
      <trkpt lat="44.36083" lon="7.20733">
        <ele>1669.95</ele>
        <time>2023-03-07T10:57:55Z</time>
      </trkpt>
      <trkpt lat="44.36094" lon="7.20747">
        <ele>1662.74</ele>
        <time>2023-03-07T10:58:01Z</time>
      </trkpt>
      <trkpt lat="44.36085" lon="7.20778">
        <ele>1657.45</ele>
        <time>2023-03-07T10:58:06Z</time>
      </trkpt>
      <trkpt lat="44.3608" lon="7.20789">
        <ele>1655.53</ele>
        <time>2023-03-07T10:58:08Z</time>
      </trkpt>
      <trkpt lat="44.36084" lon="7.20815">
        <ele>1645.91</ele>
        <time>2023-03-07T10:58:14Z</time>
      </trkpt>
      <trkpt lat="44.36081" lon="7.20843">
        <ele>1637.26</ele>
        <time>2023-03-07T10:58:19Z</time>
      </trkpt>
      <trkpt lat="44.36076" lon="7.20849">
        <ele>1633.9</ele>
        <time>2023-03-07T10:58:21Z</time>
      </trkpt>
      <trkpt lat="44.36066" lon="7.20861">
        <ele>1623.8</ele>
        <time>2023-03-07T10:58:34Z</time>
      </trkpt>
      <trkpt lat="44.36066" lon="7.20862">
        <ele>1620.92</ele>
        <time>2023-03-07T10:58:56Z</time>
      </trkpt>
      <trkpt lat="44.36068" lon="7.20868">
        <ele>1625.73</ele>
        <time>2023-03-07T10:59:19Z</time>
      </trkpt>
      <trkpt lat="44.36064" lon="7.20879">
        <ele>1631.98</ele>
        <time>2023-03-07T10:59:46Z</time>
      </trkpt>
      <trkpt lat="44.3607" lon="7.20912">
        <ele>1627.17</ele>
        <time>2023-03-07T10:59:52Z</time>
      </trkpt>
      <trkpt lat="44.36081" lon="7.20936">
        <ele>1622.36</ele>
        <time>2023-03-07T10:59:57Z</time>
      </trkpt>
      <trkpt lat="44.36089" lon="7.20932">
        <ele>1612.75</ele>
        <time>2023-03-07T11:00:04Z</time>
      </trkpt>
      <trkpt lat="44.36089" lon="7.20929">
        <ele>1607.94</ele>
        <time>2023-03-07T11:00:18Z</time>
      </trkpt>
      <trkpt lat="44.36097" lon="7.20931">
        <ele>1606.02</ele>
        <time>2023-03-07T11:00:21Z</time>
      </trkpt>
      <trkpt lat="44.36135" lon="7.20922">
        <ele>1595.93</ele>
        <time>2023-03-07T11:00:30Z</time>
      </trkpt>
      <trkpt lat="44.36144" lon="7.20936">
        <ele>1593.04</ele>
        <time>2023-03-07T11:00:34Z</time>
      </trkpt>
      <trkpt lat="44.36124" lon="7.2097">
        <ele>1587.75</ele>
        <time>2023-03-07T11:00:41Z</time>
      </trkpt>
      <trkpt lat="44.36117" lon="7.20984">
        <ele>1586.31</ele>
        <time>2023-03-07T11:00:43Z</time>
      </trkpt>
      <trkpt lat="44.36107" lon="7.20992">
        <ele>1579.58</ele>
        <time>2023-03-07T11:00:51Z</time>
      </trkpt>
      <trkpt lat="44.36108" lon="7.20992">
        <ele>1574.78</ele>
        <time>2023-03-07T11:01:05Z</time>
      </trkpt>
      <trkpt lat="44.36109" lon="7.2101">
        <ele>1570.45</ele>
        <time>2023-03-07T11:01:10Z</time>
      </trkpt>
      <trkpt lat="44.36103" lon="7.21021">
        <ele>1565.64</ele>
        <time>2023-03-07T11:01:19Z</time>
      </trkpt>
      <trkpt lat="44.36103" lon="7.2102">
        <ele>1565.16</ele>
        <time>2023-03-07T11:01:22Z</time>
      </trkpt>
      <trkpt lat="44.36113" lon="7.21015">
        <ele>1563.24</ele>
        <time>2023-03-07T11:01:25Z</time>
      </trkpt>
      <trkpt lat="44.3612" lon="7.21031">
        <ele>1558.43</ele>
        <time>2023-03-07T11:01:30Z</time>
      </trkpt>
      <trkpt lat="44.36115" lon="7.21054">
        <ele>1553.15</ele>
        <time>2023-03-07T11:01:36Z</time>
      </trkpt>
      <trkpt lat="44.36116" lon="7.21063">
        <ele>1551.22</ele>
        <time>2023-03-07T11:01:42Z</time>
      </trkpt>
      <trkpt lat="44.36117" lon="7.21072">
        <ele>1550.26</ele>
        <time>2023-03-07T11:01:49Z</time>
      </trkpt>
      <trkpt lat="44.36118" lon="7.21086">
        <ele>1544.98</ele>
        <time>2023-03-07T11:01:57Z</time>
      </trkpt>
      <trkpt lat="44.36121" lon="7.21085">
        <ele>1538.25</ele>
        <time>2023-03-07T11:02:08Z</time>
      </trkpt>
      <trkpt lat="44.3612" lon="7.21087">
        <ele>1537.29</ele>
        <time>2023-03-07T11:02:10Z</time>
      </trkpt>
      <trkpt lat="44.36116" lon="7.21099">
        <ele>1533.92</ele>
        <time>2023-03-07T11:02:18Z</time>
      </trkpt>
      <trkpt lat="44.36116" lon="7.211">
        <ele>1533.44</ele>
        <time>2023-03-07T11:02:19Z</time>
      </trkpt>
      <trkpt lat="44.36112" lon="7.21116">
        <ele>1531.04</ele>
        <time>2023-03-07T11:02:25Z</time>
      </trkpt>
      <trkpt lat="44.36111" lon="7.21117">
        <ele>1529.11</ele>
        <time>2023-03-07T11:02:30Z</time>
      </trkpt>
      <trkpt lat="44.36105" lon="7.21124">
        <ele>1526.71</ele>
        <time>2023-03-07T11:02:39Z</time>
      </trkpt>
      <trkpt lat="44.36114" lon="7.2113">
        <ele>1527.67</ele>
        <time>2023-03-07T11:02:48Z</time>
      </trkpt>
      <trkpt lat="44.36112" lon="7.21135">
        <ele>1526.23</ele>
        <time>2023-03-07T11:03:00Z</time>
      </trkpt>
      <trkpt lat="44.36102" lon="7.21142">
        <ele>1526.71</ele>
        <time>2023-03-07T11:03:09Z</time>
      </trkpt>
      <trkpt lat="44.36099" lon="7.21142">
        <ele>1529.11</ele>
        <time>2023-03-07T11:03:26Z</time>
      </trkpt>
      <trkpt lat="44.36096" lon="7.21139">
        <ele>1531.52</ele>
        <time>2023-03-07T11:03:42Z</time>
      </trkpt>
      <trkpt lat="44.36092" lon="7.21137">
        <ele>1532.48</ele>
        <time>2023-03-07T11:03:59Z</time>
      </trkpt>
      <trkpt lat="44.36091" lon="7.21141">
        <ele>1532.48</ele>
        <time>2023-03-07T11:04:15Z</time>
      </trkpt>
      <trkpt lat="44.3608" lon="7.21143">
        <ele>1532</ele>
        <time>2023-03-07T11:04:31Z</time>
      </trkpt>
      <trkpt lat="44.36074" lon="7.21152">
        <ele>1532.48</ele>
        <time>2023-03-07T11:04:47Z</time>
      </trkpt>
      <trkpt lat="44.36079" lon="7.21162">
        <ele>1533.44</ele>
        <time>2023-03-07T11:05:09Z</time>
      </trkpt>
      <trkpt lat="44.36079" lon="7.21154">
        <ele>1533.92</ele>
        <time>2023-03-07T11:05:25Z</time>
      </trkpt>
      <trkpt lat="44.36079" lon="7.21163">
        <ele>1534.88</ele>
        <time>2023-03-07T11:05:41Z</time>
      </trkpt>
      <trkpt lat="44.36076" lon="7.21166">
        <ele>1538.73</ele>
        <time>2023-03-07T11:05:56Z</time>
      </trkpt>
      <trkpt lat="44.36074" lon="7.21171">
        <ele>1545.94</ele>
        <time>2023-03-07T11:06:15Z</time>
      </trkpt>
      <trkpt lat="44.36068" lon="7.21174">
        <ele>1553.63</ele>
        <time>2023-03-07T11:06:41Z</time>
      </trkpt>
      <trkpt lat="44.36071" lon="7.21174">
        <ele>1555.55</ele>
        <time>2023-03-07T11:07:00Z</time>
      </trkpt>
      <trkpt lat="44.36071" lon="7.21176">
        <ele>1560.36</ele>
        <time>2023-03-07T11:07:27Z</time>
      </trkpt>
      <trkpt lat="44.36068" lon="7.2117">
        <ele>1562.76</ele>
        <time>2023-03-07T11:07:42Z</time>
      </trkpt>
      <trkpt lat="44.36062" lon="7.21168">
        <ele>1572.85</ele>
        <time>2023-03-07T11:08:03Z</time>
      </trkpt>
      <trkpt lat="44.36051" lon="7.21169">
        <ele>1571.89</ele>
        <time>2023-03-07T11:08:16Z</time>
      </trkpt>
      <trkpt lat="44.36029" lon="7.21167">
        <ele>1572.85</ele>
        <time>2023-03-07T11:08:28Z</time>
      </trkpt>
      <trkpt lat="44.36001" lon="7.2118">
        <ele>1573.33</ele>
        <time>2023-03-07T11:08:42Z</time>
      </trkpt>
      <trkpt lat="44.35987" lon="7.2118">
        <ele>1573.33</ele>
        <time>2023-03-07T11:08:47Z</time>
      </trkpt>
      <trkpt lat="44.35974" lon="7.21164">
        <ele>1573.82</ele>
        <time>2023-03-07T11:08:57Z</time>
      </trkpt>
      <trkpt lat="44.35973" lon="7.21164">
        <ele>1573.82</ele>
        <time>2023-03-07T11:08:58Z</time>
      </trkpt>
      <trkpt lat="44.35956" lon="7.21156">
        <ele>1573.82</ele>
        <time>2023-03-07T11:09:07Z</time>
      </trkpt>
      <trkpt lat="44.35948" lon="7.21152">
        <ele>1574.3</ele>
        <time>2023-03-07T11:09:21Z</time>
      </trkpt>
      <trkpt lat="44.35946" lon="7.21147">
        <ele>1574.78</ele>
        <time>2023-03-07T11:09:31Z</time>
      </trkpt>
      <trkpt lat="44.35945" lon="7.21147">
        <ele>1574.78</ele>
        <time>2023-03-07T11:09:34Z</time>
      </trkpt>
      <trkpt lat="44.35943" lon="7.21146">
        <ele>1575.26</ele>
        <time>2023-03-07T11:09:35Z</time>
      </trkpt>
      <trkpt lat="44.35914" lon="7.21146">
        <ele>1575.26</ele>
        <time>2023-03-07T11:09:47Z</time>
      </trkpt>
      <trkpt lat="44.35889" lon="7.21169">
        <ele>1575.74</ele>
        <time>2023-03-07T11:09:57Z</time>
      </trkpt>
      <trkpt lat="44.35864" lon="7.21195">
        <ele>1575.74</ele>
        <time>2023-03-07T11:10:05Z</time>
      </trkpt>
      <trkpt lat="44.3586" lon="7.21197">
        <ele>1575.74</ele>
        <time>2023-03-07T11:10:06Z</time>
      </trkpt>
      <trkpt lat="44.35851" lon="7.21201">
        <ele>1575.74</ele>
        <time>2023-03-07T11:10:08Z</time>
      </trkpt>
      <trkpt lat="44.35824" lon="7.21211">
        <ele>1576.22</ele>
        <time>2023-03-07T11:10:17Z</time>
      </trkpt>
      <trkpt lat="44.35812" lon="7.21151">
        <ele>1609.38</ele>
        <time>2023-03-07T11:10:31Z</time>
      </trkpt>
      <trkpt lat="44.35809" lon="7.21151">
        <ele>1614.19</ele>
        <time>2023-03-07T11:10:32Z</time>
      </trkpt>
      <trkpt lat="44.35805" lon="7.21151">
        <ele>1616.11</ele>
        <time>2023-03-07T11:10:34Z</time>
      </trkpt>
      <trkpt lat="44.35803" lon="7.21151">
        <ele>1616.11</ele>
        <time>2023-03-07T11:10:35Z</time>
      </trkpt>
      <trkpt lat="44.35767" lon="7.2117">
        <ele>1616.11</ele>
        <time>2023-03-07T11:10:47Z</time>
      </trkpt>
      <trkpt lat="44.35751" lon="7.21199">
        <ele>1557.47</ele>
        <time>2023-03-07T11:11:00Z</time>
      </trkpt>
      <trkpt lat="44.35731" lon="7.21214">
        <ele>1491.62</ele>
        <time>2023-03-07T11:11:15Z</time>
      </trkpt>
      <trkpt lat="44.35704" lon="7.21225">
        <ele>1485.37</ele>
        <time>2023-03-07T11:11:24Z</time>
      </trkpt>
      <trkpt lat="44.35701" lon="7.21224">
        <ele>1484.89</ele>
        <time>2023-03-07T11:11:25Z</time>
      </trkpt>
      <trkpt lat="44.357" lon="7.21221">
        <ele>1484.89</ele>
        <time>2023-03-07T11:11:26Z</time>
      </trkpt>
      <trkpt lat="44.357" lon="7.21219">
        <ele>1482.97</ele>
        <time>2023-03-07T11:11:27Z</time>
      </trkpt>
      <trkpt lat="44.35702" lon="7.21214">
        <ele>1482.97</ele>
        <time>2023-03-07T11:11:41Z</time>
      </trkpt>
      <trkpt lat="44.35706" lon="7.21214">
        <ele>1480.57</ele>
        <time>2023-03-07T11:12:00Z</time>
      </trkpt>
      <trkpt lat="44.35709" lon="7.2121">
        <ele>1481.53</ele>
        <time>2023-03-07T11:12:16Z</time>
      </trkpt>
      <trkpt lat="44.3571" lon="7.21213">
        <ele>1482.01</ele>
        <time>2023-03-07T11:12:37Z</time>
      </trkpt>
      <trkpt lat="44.3571" lon="7.2121">
        <ele>1483.45</ele>
        <time>2023-03-07T11:12:59Z</time>
      </trkpt>
      <trkpt lat="44.35708" lon="7.21211">
        <ele>1484.89</ele>
        <time>2023-03-07T11:13:18Z</time>
      </trkpt>
      <trkpt lat="44.35712" lon="7.21207">
        <ele>1483.93</ele>
        <time>2023-03-07T11:13:35Z</time>
      </trkpt>
      <trkpt lat="44.35716" lon="7.21204">
        <ele>1483.45</ele>
        <time>2023-03-07T11:13:47Z</time>
      </trkpt>
      <trkpt lat="44.35716" lon="7.21202">
        <ele>1482.97</ele>
        <time>2023-03-07T11:13:48Z</time>
      </trkpt>
      <trkpt lat="44.35717" lon="7.212">
        <ele>1482.97</ele>
        <time>2023-03-07T11:13:49Z</time>
      </trkpt>
      <trkpt lat="44.35718" lon="7.21198">
        <ele>1482.97</ele>
        <time>2023-03-07T11:13:50Z</time>
      </trkpt>
      <trkpt lat="44.35719" lon="7.21196">
        <ele>1482.97</ele>
        <time>2023-03-07T11:13:51Z</time>
      </trkpt>
      <trkpt lat="44.35721" lon="7.21194">
        <ele>1482.97</ele>
        <time>2023-03-07T11:13:52Z</time>
      </trkpt>
      <trkpt lat="44.35731" lon="7.21169">
        <ele>1482.49</ele>
        <time>2023-03-07T11:13:58Z</time>
      </trkpt>
      <trkpt lat="44.35729" lon="7.21158">
        <ele>1482.97</ele>
        <time>2023-03-07T11:14:04Z</time>
      </trkpt>
      <trkpt lat="44.35727" lon="7.21157">
        <ele>1483.45</ele>
        <time>2023-03-07T11:14:05Z</time>
      </trkpt>
      <trkpt lat="44.35712" lon="7.21159">
        <ele>1482.97</ele>
        <time>2023-03-07T11:14:13Z</time>
      </trkpt>
      <trkpt lat="44.35709" lon="7.21162">
        <ele>1482.97</ele>
        <time>2023-03-07T11:14:15Z</time>
      </trkpt>
      <trkpt lat="44.35677" lon="7.21183">
        <ele>1482.97</ele>
        <time>2023-03-07T11:14:28Z</time>
      </trkpt>
      <trkpt lat="44.35662" lon="7.21189">
        <ele>1482.97</ele>
        <time>2023-03-07T11:14:31Z</time>
      </trkpt>
      <trkpt lat="44.35653" lon="7.21192">
        <ele>1483.45</ele>
        <time>2023-03-07T11:14:33Z</time>
      </trkpt>
      <trkpt lat="44.35649" lon="7.21191">
        <ele>1483.45</ele>
        <time>2023-03-07T11:14:34Z</time>
      </trkpt>
      <trkpt lat="44.35645" lon="7.21189">
        <ele>1483.45</ele>
        <time>2023-03-07T11:14:35Z</time>
      </trkpt>
      <trkpt lat="44.35616" lon="7.21153">
        <ele>1483.93</ele>
        <time>2023-03-07T11:14:46Z</time>
      </trkpt>
      <trkpt lat="44.35584" lon="7.21111">
        <ele>1484.89</ele>
        <time>2023-03-07T11:14:58Z</time>
      </trkpt>
      <trkpt lat="44.35546" lon="7.21072">
        <ele>1482.97</ele>
        <time>2023-03-07T11:15:12Z</time>
      </trkpt>
      <trkpt lat="44.35521" lon="7.21046">
        <ele>1483.93</ele>
        <time>2023-03-07T11:15:22Z</time>
      </trkpt>
      <trkpt lat="44.35514" lon="7.21038">
        <ele>1484.41</ele>
        <time>2023-03-07T11:15:34Z</time>
      </trkpt>
      <trkpt lat="44.35481" lon="7.21016">
        <ele>1485.37</ele>
        <time>2023-03-07T11:15:43Z</time>
      </trkpt>
      <trkpt lat="44.35456" lon="7.21004">
        <ele>1486.34</ele>
        <time>2023-03-07T11:15:53Z</time>
      </trkpt>
      <trkpt lat="44.35454" lon="7.21005">
        <ele>1487.3</ele>
        <time>2023-03-07T11:16:03Z</time>
      </trkpt>
      <trkpt lat="44.35452" lon="7.21007">
        <ele>1487.3</ele>
        <time>2023-03-07T11:16:04Z</time>
      </trkpt>
      <trkpt lat="44.3545" lon="7.21009">
        <ele>1487.3</ele>
        <time>2023-03-07T11:16:05Z</time>
      </trkpt>
      <trkpt lat="44.35423" lon="7.20998">
        <ele>1473.36</ele>
        <time>2023-03-07T11:16:15Z</time>
      </trkpt>
      <trkpt lat="44.35418" lon="7.20991">
        <ele>1466.63</ele>
        <time>2023-03-07T11:16:17Z</time>
      </trkpt>
      <trkpt lat="44.35416" lon="7.20987">
        <ele>1463.74</ele>
        <time>2023-03-07T11:16:18Z</time>
      </trkpt>
      <trkpt lat="44.35393" lon="7.2096">
        <ele>1453.17</ele>
        <time>2023-03-07T11:16:24Z</time>
      </trkpt>
      <trkpt lat="44.3539" lon="7.20956">
        <ele>1452.21</ele>
        <time>2023-03-07T11:16:25Z</time>
      </trkpt>
      <trkpt lat="44.35388" lon="7.20952">
        <ele>1451.25</ele>
        <time>2023-03-07T11:16:26Z</time>
      </trkpt>
      <trkpt lat="44.35387" lon="7.20948">
        <ele>1450.77</ele>
        <time>2023-03-07T11:16:27Z</time>
      </trkpt>
      <trkpt lat="44.35385" lon="7.20944">
        <ele>1449.81</ele>
        <time>2023-03-07T11:16:28Z</time>
      </trkpt>
      <trkpt lat="44.35365" lon="7.20902">
        <ele>1439.71</ele>
        <time>2023-03-07T11:16:41Z</time>
      </trkpt>
      <trkpt lat="44.35362" lon="7.20896">
        <ele>1432.5</ele>
        <time>2023-03-07T11:16:53Z</time>
      </trkpt>
      <trkpt lat="44.35361" lon="7.20901">
        <ele>1425.77</ele>
        <time>2023-03-07T11:17:12Z</time>
      </trkpt>
      <trkpt lat="44.35362" lon="7.20899">
        <ele>1422.41</ele>
        <time>2023-03-07T11:17:33Z</time>
      </trkpt>
      <trkpt lat="44.35361" lon="7.20897">
        <ele>1419.52</ele>
        <time>2023-03-07T11:17:56Z</time>
      </trkpt>
      <trkpt lat="44.3536" lon="7.20897">
        <ele>1416.16</ele>
        <time>2023-03-07T11:18:15Z</time>
      </trkpt>
      <trkpt lat="44.35359" lon="7.20897">
        <ele>1415.68</ele>
        <time>2023-03-07T11:18:16Z</time>
      </trkpt>
      <trkpt lat="44.35345" lon="7.20878">
        <ele>1412.31</ele>
        <time>2023-03-07T11:18:31Z</time>
      </trkpt>
      <trkpt lat="44.35338" lon="7.20869">
        <ele>1407.99</ele>
        <time>2023-03-07T11:18:44Z</time>
      </trkpt>
      <trkpt lat="44.35338" lon="7.20864">
        <ele>1407.99</ele>
        <time>2023-03-07T11:19:00Z</time>
      </trkpt>
      <trkpt lat="44.35334" lon="7.20861">
        <ele>1407.03</ele>
        <time>2023-03-07T11:19:11Z</time>
      </trkpt>
      <trkpt lat="44.35311" lon="7.20836">
        <ele>1403.18</ele>
        <time>2023-03-07T11:19:22Z</time>
      </trkpt>
      <trkpt lat="44.35294" lon="7.20807">
        <ele>1398.37</ele>
        <time>2023-03-07T11:19:34Z</time>
      </trkpt>
      <trkpt lat="44.35275" lon="7.20776">
        <ele>1394.05</ele>
        <time>2023-03-07T11:19:45Z</time>
      </trkpt>
      <trkpt lat="44.35249" lon="7.20742">
        <ele>1388.28</ele>
        <time>2023-03-07T11:19:58Z</time>
      </trkpt>
      <trkpt lat="44.35215" lon="7.20721">
        <ele>1382.03</ele>
        <time>2023-03-07T11:20:12Z</time>
      </trkpt>
      <trkpt lat="44.35173" lon="7.20708">
        <ele>1377.71</ele>
        <time>2023-03-07T11:20:26Z</time>
      </trkpt>
      <trkpt lat="44.35148" lon="7.20681">
        <ele>1373.86</ele>
        <time>2023-03-07T11:20:38Z</time>
      </trkpt>
      <trkpt lat="44.35137" lon="7.2063">
        <ele>1369.05</ele>
        <time>2023-03-07T11:20:52Z</time>
      </trkpt>
      <trkpt lat="44.35118" lon="7.20605">
        <ele>1369.05</ele>
        <time>2023-03-07T11:21:04Z</time>
      </trkpt>
      <trkpt lat="44.35099" lon="7.206">
        <ele>1369.05</ele>
        <time>2023-03-07T11:21:18Z</time>
      </trkpt>
      <trkpt lat="44.35072" lon="7.20586">
        <ele>1363.77</ele>
        <time>2023-03-07T11:21:30Z</time>
      </trkpt>
      <trkpt lat="44.35059" lon="7.20553">
        <ele>1359.44</ele>
        <time>2023-03-07T11:21:44Z</time>
      </trkpt>
      <trkpt lat="44.35042" lon="7.20527">
        <ele>1356.08</ele>
        <time>2023-03-07T11:21:59Z</time>
      </trkpt>
      <trkpt lat="44.35034" lon="7.20522">
        <ele>1353.67</ele>
        <time>2023-03-07T11:22:06Z</time>
      </trkpt>
      <trkpt lat="44.35032" lon="7.20521">
        <ele>1352.71</ele>
        <time>2023-03-07T11:22:08Z</time>
      </trkpt>
      <trkpt lat="44.35017" lon="7.20515">
        <ele>1352.71</ele>
        <time>2023-03-07T11:22:21Z</time>
      </trkpt>
      <trkpt lat="44.35014" lon="7.2051">
        <ele>1352.71</ele>
        <time>2023-03-07T11:22:25Z</time>
      </trkpt>
      <trkpt lat="44.35013" lon="7.20509">
        <ele>1352.71</ele>
        <time>2023-03-07T11:22:26Z</time>
      </trkpt>
      <trkpt lat="44.3499" lon="7.20483">
        <ele>1351.27</ele>
        <time>2023-03-07T11:22:39Z</time>
      </trkpt>
      <trkpt lat="44.34982" lon="7.2047">
        <ele>1350.79</ele>
        <time>2023-03-07T11:22:42Z</time>
      </trkpt>
      <trkpt lat="44.34976" lon="7.2046">
        <ele>1350.79</ele>
        <time>2023-03-07T11:22:44Z</time>
      </trkpt>
      <trkpt lat="44.34943" lon="7.20434">
        <ele>1351.27</ele>
        <time>2023-03-07T11:22:56Z</time>
      </trkpt>
      <trkpt lat="44.34915" lon="7.20422">
        <ele>1350.79</ele>
        <time>2023-03-07T11:23:08Z</time>
      </trkpt>
      <trkpt lat="44.34873" lon="7.20414">
        <ele>1350.79</ele>
        <time>2023-03-07T11:23:20Z</time>
      </trkpt>
      <trkpt lat="44.3483" lon="7.20397">
        <ele>1340.22</ele>
        <time>2023-03-07T11:23:32Z</time>
      </trkpt>
      <trkpt lat="44.34798" lon="7.20406">
        <ele>1338.77</ele>
        <time>2023-03-07T11:23:43Z</time>
      </trkpt>
      <trkpt lat="44.34782" lon="7.20406">
        <ele>1336.85</ele>
        <time>2023-03-07T11:23:54Z</time>
      </trkpt>
      <trkpt lat="44.34766" lon="7.20398">
        <ele>1333.49</ele>
        <time>2023-03-07T11:24:02Z</time>
      </trkpt>
      <trkpt lat="44.34723" lon="7.20405">
        <ele>1325.8</ele>
        <time>2023-03-07T11:24:16Z</time>
      </trkpt>
      <trkpt lat="44.34704" lon="7.20395">
        <ele>1321.95</ele>
        <time>2023-03-07T11:24:26Z</time>
      </trkpt>
      <trkpt lat="44.34702" lon="7.20394">
        <ele>1321.47</ele>
        <time>2023-03-07T11:24:38Z</time>
      </trkpt>
      <trkpt lat="44.34702" lon="7.20391">
        <ele>1323.87</ele>
        <time>2023-03-07T11:24:51Z</time>
      </trkpt>
      <trkpt lat="44.34703" lon="7.20391">
        <ele>1322.43</ele>
        <time>2023-03-07T11:25:13Z</time>
      </trkpt>
      <trkpt lat="44.34704" lon="7.20389">
        <ele>1323.87</ele>
        <time>2023-03-07T11:25:34Z</time>
      </trkpt>
      <trkpt lat="44.34702" lon="7.20389">
        <ele>1324.83</ele>
        <time>2023-03-07T11:25:59Z</time>
      </trkpt>
      <trkpt lat="44.34702" lon="7.20387">
        <ele>1324.35</ele>
        <time>2023-03-07T11:26:20Z</time>
      </trkpt>
      <trkpt lat="44.34703" lon="7.20387">
        <ele>1325.31</ele>
        <time>2023-03-07T11:26:48Z</time>
      </trkpt>
      <trkpt lat="44.34699" lon="7.20392">
        <ele>1321.47</ele>
        <time>2023-03-07T11:27:08Z</time>
      </trkpt>
      <trkpt lat="44.34693" lon="7.20402">
        <ele>1318.59</ele>
        <time>2023-03-07T11:27:20Z</time>
      </trkpt>
      <trkpt lat="44.34689" lon="7.20402">
        <ele>1318.59</ele>
        <time>2023-03-07T11:27:24Z</time>
      </trkpt>
      <trkpt lat="44.34684" lon="7.20405">
        <ele>1317.62</ele>
        <time>2023-03-07T11:27:29Z</time>
      </trkpt>
      <trkpt lat="44.34665" lon="7.20404">
        <ele>1317.62</ele>
        <time>2023-03-07T11:27:48Z</time>
      </trkpt>
      <trkpt lat="44.34649" lon="7.20391">
        <ele>1317.14</ele>
        <time>2023-03-07T11:28:06Z</time>
      </trkpt>
      <trkpt lat="44.34633" lon="7.20376">
        <ele>1317.14</ele>
        <time>2023-03-07T11:28:25Z</time>
      </trkpt>
      <trkpt lat="44.34617" lon="7.20367">
        <ele>1317.62</ele>
        <time>2023-03-07T11:28:42Z</time>
      </trkpt>
      <trkpt lat="44.34615" lon="7.20364">
        <ele>1317.62</ele>
        <time>2023-03-07T11:28:45Z</time>
      </trkpt>
      <trkpt lat="44.34614" lon="7.20362">
        <ele>1317.62</ele>
        <time>2023-03-07T11:28:46Z</time>
      </trkpt>
      <trkpt lat="44.34607" lon="7.20345">
        <ele>1315.7</ele>
        <time>2023-03-07T11:29:05Z</time>
      </trkpt>
      <trkpt lat="44.34605" lon="7.20327">
        <ele>1315.7</ele>
        <time>2023-03-07T11:29:21Z</time>
      </trkpt>
      <trkpt lat="44.34605" lon="7.2031">
        <ele>1315.22</ele>
        <time>2023-03-07T11:29:35Z</time>
      </trkpt>
      <trkpt lat="44.34605" lon="7.20307">
        <ele>1315.22</ele>
        <time>2023-03-07T11:29:38Z</time>
      </trkpt>
      <trkpt lat="44.34607" lon="7.20284">
        <ele>1317.14</ele>
        <time>2023-03-07T11:29:52Z</time>
      </trkpt>
      <trkpt lat="44.3461" lon="7.20261">
        <ele>1318.1</ele>
        <time>2023-03-07T11:30:09Z</time>
      </trkpt>
      <trkpt lat="44.34613" lon="7.20236">
        <ele>1319.07</ele>
        <time>2023-03-07T11:30:26Z</time>
      </trkpt>
      <trkpt lat="44.34619" lon="7.20206">
        <ele>1318.59</ele>
        <time>2023-03-07T11:30:45Z</time>
      </trkpt>
      <trkpt lat="44.34622" lon="7.20192">
        <ele>1319.55</ele>
        <time>2023-03-07T11:30:54Z</time>
      </trkpt>
      <trkpt lat="44.34621" lon="7.2019">
        <ele>1319.55</ele>
        <time>2023-03-07T11:30:55Z</time>
      </trkpt>
      <trkpt lat="44.34621" lon="7.20189">
        <ele>1319.55</ele>
        <time>2023-03-07T11:30:56Z</time>
      </trkpt>
      <trkpt lat="44.34621" lon="7.20187">
        <ele>1319.55</ele>
        <time>2023-03-07T11:30:57Z</time>
      </trkpt>
      <trkpt lat="44.34621" lon="7.20186">
        <ele>1319.55</ele>
        <time>2023-03-07T11:30:58Z</time>
      </trkpt>
      <trkpt lat="44.34621" lon="7.20181">
        <ele>1319.55</ele>
        <time>2023-03-07T11:31:01Z</time>
      </trkpt>
      <trkpt lat="44.34619" lon="7.20172">
        <ele>1320.03</ele>
        <time>2023-03-07T11:31:08Z</time>
      </trkpt>
      <trkpt lat="44.34618" lon="7.2017">
        <ele>1320.51</ele>
        <time>2023-03-07T11:31:09Z</time>
      </trkpt>
      <trkpt lat="44.34617" lon="7.20145">
        <ele>1320.51</ele>
        <time>2023-03-07T11:31:27Z</time>
      </trkpt>
      <trkpt lat="44.34618" lon="7.20145">
        <ele>1318.59</ele>
        <time>2023-03-07T11:31:41Z</time>
      </trkpt>
      <trkpt lat="44.34618" lon="7.20146">
        <ele>1319.55</ele>
        <time>2023-03-07T11:31:56Z</time>
      </trkpt>
      <trkpt lat="44.34615" lon="7.20145">
        <ele>1322.43</ele>
        <time>2023-03-07T11:32:16Z</time>
      </trkpt>
      <trkpt lat="44.34619" lon="7.20145">
        <ele>1320.51</ele>
        <time>2023-03-07T11:32:28Z</time>
      </trkpt>
      <trkpt lat="44.34624" lon="7.20146">
        <ele>1320.51</ele>
        <time>2023-03-07T11:32:44Z</time>
      </trkpt>
      <trkpt lat="44.34621" lon="7.20147">
        <ele>1318.59</ele>
        <time>2023-03-07T11:32:54Z</time>
      </trkpt>
      <trkpt lat="44.34622" lon="7.20144">
        <ele>1319.07</ele>
        <time>2023-03-07T11:33:07Z</time>
      </trkpt>
      <trkpt lat="44.34623" lon="7.20145">
        <ele>1316.66</ele>
        <time>2023-03-07T11:33:40Z</time>
      </trkpt>
      <trkpt lat="44.34623" lon="7.20143">
        <ele>1319.07</ele>
        <time>2023-03-07T11:34:19Z</time>
      </trkpt>
      <trkpt lat="44.3462" lon="7.20144">
        <ele>1317.62</ele>
        <time>2023-03-07T11:34:38Z</time>
      </trkpt>
      <trkpt lat="44.34621" lon="7.2014">
        <ele>1319.55</ele>
        <time>2023-03-07T11:35:09Z</time>
      </trkpt>
      <trkpt lat="44.34621" lon="7.20142">
        <ele>1320.99</ele>
        <time>2023-03-07T11:35:38Z</time>
      </trkpt>
      <trkpt lat="44.34621" lon="7.20142">
        <ele>1316.66</ele>
        <time>2023-03-07T11:36:18Z</time>
      </trkpt>
      <trkpt lat="44.3462" lon="7.20143">
        <ele>1318.1</ele>
        <time>2023-03-07T11:36:51Z</time>
      </trkpt>
      <trkpt lat="44.34621" lon="7.20143">
        <ele>1317.62</ele>
        <time>2023-03-07T11:37:20Z</time>
      </trkpt>
      <trkpt lat="44.34622" lon="7.2014">
        <ele>1319.55</ele>
        <time>2023-03-07T11:37:56Z</time>
      </trkpt>
      <trkpt lat="44.34622" lon="7.20143">
        <ele>1319.55</ele>
        <time>2023-03-07T11:38:25Z</time>
      </trkpt>
      <trkpt lat="44.3462" lon="7.20142">
        <ele>1317.62</ele>
        <time>2023-03-07T11:38:52Z</time>
      </trkpt>
      <trkpt lat="44.34623" lon="7.20145">
        <ele>1319.55</ele>
        <time>2023-03-07T11:39:25Z</time>
      </trkpt>
      <trkpt lat="44.34618" lon="7.20146">
        <ele>1318.59</ele>
        <time>2023-03-07T11:39:30Z</time>
      </trkpt>
      <trkpt lat="44.34614" lon="7.2015">
        <ele>1318.1</ele>
        <time>2023-03-07T11:39:44Z</time>
      </trkpt>
      <trkpt lat="44.34614" lon="7.20154">
        <ele>1322.43</ele>
        <time>2023-03-07T11:40:08Z</time>
      </trkpt>
      <trkpt lat="44.34612" lon="7.20156">
        <ele>1325.8</ele>
        <time>2023-03-07T11:40:29Z</time>
      </trkpt>
      <trkpt lat="44.34609" lon="7.20158">
        <ele>1328.2</ele>
        <time>2023-03-07T11:40:49Z</time>
      </trkpt>
      <trkpt lat="44.34607" lon="7.20163">
        <ele>1333.01</ele>
        <time>2023-03-07T11:41:11Z</time>
      </trkpt>
      <trkpt lat="44.34607" lon="7.20163">
        <ele>1332.04</ele>
        <time>2023-03-07T11:41:31Z</time>
      </trkpt>
      <trkpt lat="44.34608" lon="7.20162">
        <ele>1330.12</ele>
        <time>2023-03-07T11:41:55Z</time>
      </trkpt>
      <trkpt lat="44.34611" lon="7.2016">
        <ele>1332.04</ele>
        <time>2023-03-07T11:42:18Z</time>
      </trkpt>
      <trkpt lat="44.34611" lon="7.2016">
        <ele>1330.12</ele>
        <time>2023-03-07T11:42:44Z</time>
      </trkpt>
      <trkpt lat="44.34611" lon="7.20156">
        <ele>1328.2</ele>
        <time>2023-03-07T11:43:16Z</time>
      </trkpt>
    </trkseg>
  </trk>
</gpx>